Observation data for Aiken on 08/14/2019      Previous  Date  Next       Current Mesonet Observations  Soil Data  Daily Summary Page  Observations in Plain Language
KAI1 140500Z 06004KT 23/18 A3016 RMK A01 T02250184  RH  077%=      5-min Rain = 0
KAI1 140501Z 06005KT 22/18 A3016 RMK A01 T02230183  RH  078%=      5-min Rain = 0
KAI1 140502Z 06005KT 22/18 A3016 RMK A01 T02230183  RH  078%=      5-min Rain = 0
KAI1 140503Z 07005KT 22/18 A3016 RMK A01 T02230184  RH  078%=      5-min Rain = 0
KAI1 140504Z 07006KT 22/18 A3016 RMK A01 T02220183  RH  079%=      5-min Rain = 0
KAI1 140505Z 07006KT 22/18 A3016 RMK A01 T02220183  RH  078%=      5-min Rain = 0
KAI1 140506Z 07006KT 22/18 A3016 RMK A01 T02230183  RH  078%=      5-min Rain = 0
KAI1 140507Z 08006KT 22/18 A3016 RMK A01 T02230183  RH  078%=      5-min Rain = 0
KAI1 140508Z 08006KT 22/18 A3016 RMK A01 T02220182  RH  078%=      5-min Rain = 0
KAI1 140509Z 08006KT 22/18 A3015 RMK A01 T02230182  RH  078%=      5-min Rain = 0
KAI1 140510Z 09006KT 22/18 A3015 RMK A01 T02230182  RH  078%=      5-min Rain = 0
KAI1 140519Z 08006KT 23/18 A3015 RMK A01 T02270183  RH  076%=      5-min Rain = 0
KAI1 140520Z 08007KT 23/18 A3015 RMK A01 T02270183  RH  076%=      5-min Rain = 0
KAI1 140521Z 08008KT 23/18 A3015 RMK A01 T02270183  RH  076%=      5-min Rain = 0
KAI1 140522Z 08008KT 23/18 A3015 RMK A01 T02280183  RH  076%=      5-min Rain = 0
KAI1 140523Z 08008KT 23/18 A3015 RMK A01 T02270183  RH  076%=      5-min Rain = 0
KAI1 140524Z 07008KT 23/18 A3015 RMK A01 T02270183  RH  076%=      5-min Rain = 0
KAI1 140525Z 07008KT 23/18 A3016 RMK A01 T02280183  RH  076%=      5-min Rain = 0
KAI1 140526Z 07008KT 23/18 A3016 RMK A01 T02280184  RH  076%=      5-min Rain = 0
KAI1 140527Z 06008KT 23/19 A3016 RMK A01 T02290185  RH  076%=      5-min Rain = 0
KAI1 140528Z 06008KT 23/19 A3016 RMK A01 T02300185  RH  076%=      5-min Rain = 0
KAI1 140529Z 06008KT 23/19 A3016 RMK A01 T02300185  RH  076%=      5-min Rain = 0
KAI1 140530Z 06007KT 23/19 A3016 RMK A01 T02300185  RH  076%=      5-min Rain = 0
KAI1 140531Z 06007KT 23/19 A3016 RMK A01 T02300185  RH  076%=      5-min Rain = 0
KAI1 140532Z 06007KT 23/19 A3016 RMK A01 T02310185  RH  075%=      5-min Rain = 0
KAI1 140533Z 07007KT 23/19 A3016 RMK A01 T02310185  RH  075%=      5-min Rain = 0
KAI1 140534Z 07008KT 23/19 A3015 RMK A01 T02320185  RH  075%=      5-min Rain = 0
KAI1 140535Z 07008KT 23/19 A3015 RMK A01 T02320185  RH  075%=      5-min Rain = 0
KAI1 140536Z 07007KT 23/19 A3015 RMK A01 T02330185  RH  074%=      5-min Rain = 0
KAI1 140537Z 08008KT 23/19 A3015 RMK A01 T02330185  RH  074%=      5-min Rain = 0
KAI1 140538Z 08006KT 23/19 A3015 RMK A01 T02340185  RH  074%=      5-min Rain = 0
KAI1 140539Z 07006KT 23/19 A3015 RMK A01 T02330185  RH  074%=      5-min Rain = 0
KAI1 140540Z 07006KT 23/19 A3016 RMK A01 T02330185  RH  074%=      5-min Rain = 0
KAI1 140541Z 07006KT 23/19 A3016 RMK A01 T02320185  RH  075%=      5-min Rain = 0
KAI1 140542Z 07007KT 23/19 A3016 RMK A01 T02320185  RH  075%=      5-min Rain = 0
KAI1 140543Z 06007KT 23/19 A3016 RMK A01 T02320186  RH  075%=      5-min Rain = 0
KAI1 140544Z 06007KT 23/19 A3016 RMK A01 T02310186  RH  075%=      5-min Rain = 0
KAI1 140545Z 05007KT 23/19 A3016 RMK A01 T02310186  RH  076%=      5-min Rain = 0
KAI1 140546Z 05007KT 23/19 A3017 RMK A01 T02300186  RH  076%=      5-min Rain = 0
KAI1 140547Z 05007KT 23/19 A3017 RMK A01 T02290186  RH  077%=      5-min Rain = 0
KAI1 140548Z 05008KT 23/19 A3017 RMK A01 T02280186  RH  077%=      5-min Rain = 0
KAI1 140549Z 06008KT 23/19 A3017 RMK A01 T02270186  RH  077%=      5-min Rain = 0
KAI1 140550Z 06007KT 23/19 A3017 RMK A01 T02270186  RH  077%=      5-min Rain = 0
KAI1 140551Z 07007KT 23/19 A3017 RMK A01 T02280186  RH  077%=      5-min Rain = 0
KAI1 140552Z 07007KT 23/19 A3017 RMK A01 T02270186  RH  077%=      5-min Rain = 0
KAI1 140553Z 07007KT 23/19 A3016 RMK A01 T02270186  RH  077%=      5-min Rain = 0
KAI1 140554Z 07007KT 23/19 A3017 RMK A01 T02270186  RH  077%=      5-min Rain = 0
KAI1 140555Z 07007KT 23/19 A3017 RMK A01 T02270186  RH  078%=      5-min Rain = 0
KAI1 140556Z 07008KT 23/19 A3017 RMK A01 T02260185  RH  078%=      5-min Rain = 0
KAI1 140557Z 07007KT 23/19 A3017 RMK A01 T02260186  RH  078%=      5-min Rain = 0
KAI1 140558Z 08007KT 23/19 A3016 RMK A01 T02260185  RH  078%=      5-min Rain = 0
KAI1 140559Z 08007KT 23/19 A3016 RMK A01 T02260185  RH  078%=      5-min Rain = 0
KAI1 140600Z 08007KT 23/19 A3016 RMK A01 T02260186  RH  078%=      5-min Rain = 0
KAI1 140601Z 08007KT 23/19 A3017 RMK A01 T02260185  RH  078%=      5-min Rain = 0
KAI1 140602Z 08007KT 23/19 A3017 RMK A01 T02260185  RH  078%=      5-min Rain = 0
KAI1 140603Z 07007KT 23/19 A3017 RMK A01 T02260186  RH  078%=      5-min Rain = 0
KAI1 140604Z 07007KT 23/19 A3017 RMK A01 T02260186  RH  078%=      5-min Rain = 0
KAI1 140605Z 06008KT 23/19 A3017 RMK A01 T02270186  RH  078%=      5-min Rain = 0
KAI1 140606Z 06009KT 23/19 A3017 RMK A01 T02270187  RH  078%=      5-min Rain = 0
KAI1 140607Z 06009KT 23/19 A3018 RMK A01 T02270187  RH  078%=      5-min Rain = 0
KAI1 140608Z 06009KT 23/19 A3018 RMK A01 T02280187  RH  077%=      5-min Rain = 0
KAI1 140609Z 07009KT 23/19 A3018 RMK A01 T02290187  RH  077%=      5-min Rain = 0
KAI1 140610Z 07008KT 23/19 A3018 RMK A01 T02290187  RH  077%=      5-min Rain = 0
KAI1 140611Z 06008KT 23/19 A3018 RMK A01 T02290187  RH  077%=      5-min Rain = 0
KAI1 140612Z 07008KT 23/19 A3018 RMK A01 T02300188  RH  077%=      5-min Rain = 0
KAI1 140613Z 06008KT 23/19 A3018 RMK A01 T02300188  RH  077%=      5-min Rain = 0
KAI1 140614Z 06007KT 23/19 A3017 RMK A01 T02300188  RH  077%=      5-min Rain = 0
KAI1 140615Z 06007KT 23/19 A3018 RMK A01 T02300188  RH  077%=      5-min Rain = 0
KAI1 140616Z 06007KT 23/19 A3018 RMK A01 T02290188  RH  077%=      5-min Rain = 0
KAI1 140617Z 06008KT 23/19 A3018 RMK A01 T02280187  RH  078%=      5-min Rain = 0
KAI1 140618Z 06007KT 23/19 A3018 RMK A01 T02270187  RH  078%=      5-min Rain = 0
KAI1 140619Z 06008KT 23/19 A3018 RMK A01 T02260187  RH  079%=      5-min Rain = 0
KAI1 140620Z 05008KT 23/19 A3018 RMK A01 T02250187  RH  079%=      5-min Rain = 0
KAI1 140621Z 05007KT 22/19 A3018 RMK A01 T02240188  RH  080%=      5-min Rain = 0
KAI1 140622Z 05008KT 22/19 A3018 RMK A01 T02240188  RH  080%=      5-min Rain = 0
KAI1 140623Z 06008KT 22/19 A3018 RMK A01 T02230189  RH  081%=      5-min Rain = 0
KAI1 140624Z 05008KT 22/19 A3018 RMK A01 T02230189  RH  081%=      5-min Rain = 0
KAI1 140625Z 05007KT 22/19 A3018 RMK A01 T02230189  RH  081%=      5-min Rain = 0
KAI1 140626Z 05007KT 22/19 A3018 RMK A01 T02230190  RH  081%=      5-min Rain = 0
KAI1 140627Z 05008KT 22/19 A3018 RMK A01 T02230190  RH  082%=      5-min Rain = 0
KAI1 140628Z 06008KT 22/19 A3018 RMK A01 T02220190  RH  082%=      5-min Rain = 0
KAI1 140629Z 05008KT 22/19 A3018 RMK A01 T02230190  RH  082%=      5-min Rain = 0
KAI1 140630Z 05008KT 22/19 A3018 RMK A01 T02230191  RH  082%=      5-min Rain = 0
KAI1 140631Z 05008KT 22/19 A3019 RMK A01 T02230191  RH  082%=      5-min Rain = 0
KAI1 140632Z 05008KT 22/19 A3019 RMK A01 T02240191  RH  082%=      5-min Rain = 0
KAI1 140633Z 05007KT 22/19 A3019 RMK A01 T02240191  RH  081%=      5-min Rain = 0
KAI1 140634Z 05008KT 22/19 A3019 RMK A01 T02240191  RH  081%=      5-min Rain = 0
KAI1 140635Z 05007KT 22/19 A3019 RMK A01 T02240191  RH  081%=      5-min Rain = 0
KAI1 140636Z 05007KT 22/19 A3019 RMK A01 T02240191  RH  081%=      5-min Rain = 0
KAI1 140637Z 05007KT 23/19 A3019 RMK A01 T02250191  RH  081%=      5-min Rain = 0
KAI1 140638Z 06007KT 23/19 A3019 RMK A01 T02250191  RH  081%=      5-min Rain = 0
KAI1 140639Z 06007KT 23/19 A3019 RMK A01 T02250191  RH  081%=      5-min Rain = 0
KAI1 140640Z 06008KT 23/19 A3019 RMK A01 T02250191  RH  081%=      5-min Rain = 0
KAI1 140641Z 06007KT 23/19 A3019 RMK A01 T02250190  RH  081%=      5-min Rain = 0
KAI1 140642Z 06009KT 23/19 A3019 RMK A01 T02250190  RH  080%=      5-min Rain = 0
KAI1 140643Z 06008KT 23/19 A3019 RMK A01 T02260190  RH  080%=      5-min Rain = 0
KAI1 140644Z 06008KT 23/19 A3019 RMK A01 T02270190  RH  079%=      5-min Rain = 0
KAI1 140645Z 07008KT 23/19 A3019 RMK A01 T02280190  RH  079%=      5-min Rain = 0
KAI1 140646Z 07006KT 23/19 A3018 RMK A01 T02280190  RH  079%=      5-min Rain = 0
KAI1 140647Z 07008KT 23/19 A3018 RMK A01 T02280190  RH  079%=      5-min Rain = 0
KAI1 140648Z 07007KT 23/19 A3018 RMK A01 T02290189  RH  078%=      5-min Rain = 0
KAI1 140649Z 07008KT 23/19 A3018 RMK A01 T02290189  RH  078%=      5-min Rain = 0
KAI1 140650Z 06009KT 23/19 A3018 RMK A01 T02300189  RH  078%=      5-min Rain = 0
KAI1 140651Z 07009KT 23/19 A3018 RMK A01 T02310189  RH  077%=      5-min Rain = 0
KAI1 140652Z 06009KT 23/19 A3018 RMK A01 T02320189  RH  077%=      5-min Rain = 0
KAI1 140653Z 06008KT 23/19 A3018 RMK A01 T02330189  RH  076%=      5-min Rain = 0
KAI1 140654Z 06007KT 23/19 A3018 RMK A01 T02330189  RH  076%=      5-min Rain = 0
KAI1 140655Z 06007KT 23/19 A3018 RMK A01 T02320189  RH  077%=      5-min Rain = 0
KAI1 140656Z 06008KT 23/19 A3018 RMK A01 T02320189  RH  077%=      5-min Rain = 0
KAI1 140657Z 06009KT 23/19 A3018 RMK A01 T02310189  RH  077%=      5-min Rain = 0
KAI1 140658Z 06009KT 23/19 A3018 RMK A01 T02310188  RH  077%=      5-min Rain = 0
KAI1 140659Z 06009KT 23/19 A3018 RMK A01 T02310188  RH  077%=      5-min Rain = 0
KAI1 140700Z 06008KT 23/19 A3018 RMK A01 T02320188  RH  076%=      5-min Rain = 0
KAI1 140701Z 06008KT 23/19 A3018 RMK A01 T02320188  RH  076%=      5-min Rain = 0
KAI1 140702Z 06009KT 23/19 A3018 RMK A01 T02320189  RH  077%=      5-min Rain = 0
KAI1 140703Z 06008KT 23/19 A3018 RMK A01 T02310188  RH  077%=      5-min Rain = 0
KAI1 140704Z 06008KT 23/19 A3018 RMK A01 T02310188  RH  077%=      5-min Rain = 0
KAI1 140705Z 06008KT 23/19 A3018 RMK A01 T02310188  RH  077%=      5-min Rain = 0
KAI1 140706Z 06009KT 23/19 A3018 RMK A01 T02310188  RH  077%=      5-min Rain = 0
KAI1 140707Z 06008KT 23/19 A3018 RMK A01 T02300188  RH  077%=      5-min Rain = 0
KAI1 140708Z 06009KT 23/19 A3018 RMK A01 T02300188  RH  077%=      5-min Rain = 0
KAI1 140709Z 06008KT 23/19 A3018 RMK A01 T02300188  RH  077%=      5-min Rain = 0
KAI1 140710Z 06009KT 23/19 A3018 RMK A01 T02300188  RH  077%=      5-min Rain = 0
KAI1 140711Z 06008KT 23/19 A3018 RMK A01 T02300188  RH  077%=      5-min Rain = 0
KAI1 140712Z 06009KT 23/19 A3018 RMK A01 T02290188  RH  077%=      5-min Rain = 0
KAI1 140713Z 06009KT 23/19 A3018 RMK A01 T02290187  RH  077%=      5-min Rain = 0
KAI1 140714Z 06008KT 23/19 A3018 RMK A01 T02290187  RH  077%=      5-min Rain = 0
KAI1 140715Z 06009KT 23/19 A3018 RMK A01 T02290187  RH  077%=      5-min Rain = 0
KAI1 140716Z 07009KT 23/19 A3018 RMK A01 T02300187  RH  077%=      5-min Rain = 0
KAI1 140717Z 06009KT 23/19 A3018 RMK A01 T02300187  RH  077%=      5-min Rain = 0
KAI1 140718Z 07009KT 23/19 A3018 RMK A01 T02300187  RH  077%=      5-min Rain = 0
KAI1 140719Z 07009KT 23/19 A3018 RMK A01 T02300187  RH  076%=      5-min Rain = 0
KAI1 140720Z 07008KT 23/19 A3018 RMK A01 T02300186  RH  076%=      5-min Rain = 0
KAI1 140721Z 07008KT 23/19 A3018 RMK A01 T02310187  RH  076%=      5-min Rain = 0
KAI1 140722Z 07009KT 23/19 A3018 RMK A01 T02310187  RH  076%=      5-min Rain = 0
KAI1 140723Z 07008KT 23/19 A3018 RMK A01 T02300186  RH  076%=      5-min Rain = 0
KAI1 140724Z 07008KT 23/19 A3018 RMK A01 T02300186  RH  076%=      5-min Rain = 0
KAI1 140725Z 07007KT 23/19 A3018 RMK A01 T02300186  RH  076%=      5-min Rain = 0
KAI1 140726Z 07008KT 23/19 A3018 RMK A01 T02300186  RH  076%=      5-min Rain = 0
KAI1 140727Z 08007KT 23/19 A3018 RMK A01 T02290186  RH  076%=      5-min Rain = 0
KAI1 140728Z 08008KT 23/19 A3018 RMK A01 T02290186  RH  077%=      5-min Rain = 0
KAI1 140729Z 09007KT 23/19 A3018 RMK A01 T02280185  RH  076%=      5-min Rain = 0
KAI1 140730Z 08009KT 23/19 A3017 RMK A01 T02290185  RH  076%=      5-min Rain = 0
KAI1 140731Z 08007KT 23/19 A3017 RMK A01 T02290185  RH  076%=      5-min Rain = 0
KAI1 140732Z 08008KT 23/19 A3017 RMK A01 T02290185  RH  076%=      5-min Rain = 0
KAI1 140733Z 08009KT 23/19 A3017 RMK A01 T02290185  RH  076%=      5-min Rain = 0
KAI1 140734Z 08008KT 23/18 A3017 RMK A01 T02290184  RH  076%=      5-min Rain = 0
KAI1 140735Z 08009KT 23/19 A3017 RMK A01 T02290185  RH  076%=      5-min Rain = 0
KAI1 140736Z 08010KT 23/19 A3017 RMK A01 T02300185  RH  076%=      5-min Rain = 0
KAI1 140737Z 08009KT 23/19 A3017 RMK A01 T02290185  RH  076%=      5-min Rain = 0
KAI1 140738Z 07010KT 23/19 A3017 RMK A01 T02290185  RH  076%=      5-min Rain = 0
KAI1 140739Z 07010KT 23/19 A3017 RMK A01 T02290185  RH  076%=      5-min Rain = 0
KAI1 140740Z 07009KT 23/19 A3017 RMK A01 T02290185  RH  076%=      5-min Rain = 0
KAI1 140741Z 07010KT 23/19 A3017 RMK A01 T02290185  RH  076%=      5-min Rain = 0
KAI1 140742Z 08009KT 23/19 A3017 RMK A01 T02290185  RH  076%=      5-min Rain = 0
KAI1 140743Z 08009KT 23/19 A3017 RMK A01 T02290186  RH  076%=      5-min Rain = 0
KAI1 140744Z 08010KT 23/19 A3017 RMK A01 T02290186  RH  076%=      5-min Rain = 0
KAI1 140745Z 08011KT 23/19 A3017 RMK A01 T02290185  RH  076%=      5-min Rain = 0
KAI1 140746Z 08009KT 23/19 A3017 RMK A01 T02290185  RH  076%=      5-min Rain = 0
KAI1 140747Z 07009KT 23/19 A3017 RMK A01 T02290185  RH  076%=      5-min Rain = 0
KAI1 140748Z 07010KT 23/19 A3017 RMK A01 T02290185  RH  076%=      5-min Rain = 0
KAI1 140749Z 07011KT 23/19 A3017 RMK A01 T02290186  RH  077%=      5-min Rain = 0
KAI1 140750Z 08012KT 23/19 A3017 RMK A01 T02290186  RH  077%=      5-min Rain = 0
KAI1 140751Z 08009KT 23/19 A3017 RMK A01 T02290185  RH  076%=      5-min Rain = 0
KAI1 140752Z 07010KT 23/19 A3017 RMK A01 T02290186  RH  076%=      5-min Rain = 0
KAI1 140753Z 07009KT 23/19 A3017 RMK A01 T02290186  RH  077%=      5-min Rain = 0
KAI1 140754Z 08008KT 23/19 A3017 RMK A01 T02280185  RH  077%=      5-min Rain = 0
KAI1 140755Z 07010KT 23/19 A3017 RMK A01 T02280185  RH  077%=      5-min Rain = 0
KAI1 140756Z 07010KT 23/19 A3017 RMK A01 T02280185  RH  077%=      5-min Rain = 0
KAI1 140757Z 07009KT 23/19 A3017 RMK A01 T02280186  RH  077%=      5-min Rain = 0
KAI1 140758Z 07009KT 23/19 A3017 RMK A01 T02280186  RH  077%=      5-min Rain = 0
KAI1 140759Z 08008KT 23/19 A3017 RMK A01 T02270186  RH  077%=      5-min Rain = 0
KAI1 140800Z 07008KT 23/19 A3017 RMK A01 T02260186  RH  078%=      5-min Rain = 0
KAI1 140801Z 08008KT 23/19 A3017 RMK A01 T02260186  RH  078%=      5-min Rain = 0
KAI1 140802Z 07009KT 23/19 A3017 RMK A01 T02260186  RH  078%=      5-min Rain = 0
KAI1 140803Z 07009KT 23/19 A3017 RMK A01 T02260186  RH  078%=      5-min Rain = 0
KAI1 140804Z 08009KT 23/19 A3017 RMK A01 T02250186  RH  078%=      5-min Rain = 0
KAI1 140805Z 08008KT 23/19 A3016 RMK A01 T02250186  RH  078%=      5-min Rain = 0
KAI1 140806Z 08010KT 23/19 A3016 RMK A01 T02250186  RH  078%=      5-min Rain = 0
KAI1 140807Z 08009KT 23/19 A3016 RMK A01 T02250185  RH  078%=      5-min Rain = 0
KAI1 140808Z 08008KT 23/19 A3016 RMK A01 T02250185  RH  078%=      5-min Rain = 0
KAI1 140809Z 08008KT 23/19 A3016 RMK A01 T02250185  RH  078%=      5-min Rain = 0
KAI1 140810Z 08008KT 22/19 A3016 RMK A01 T02240185  RH  079%=      5-min Rain = 0
KAI1 140811Z 08008KT 22/19 A3016 RMK A01 T02230185  RH  079%=      5-min Rain = 0
KAI1 140812Z 08008KT 22/19 A3016 RMK A01 T02230185  RH  079%=      5-min Rain = 0
KAI1 140813Z 08008KT 22/19 A3016 RMK A01 T02230185  RH  079%=      5-min Rain = 0
KAI1 140814Z 08007KT 22/19 A3016 RMK A01 T02220185  RH  079%=      5-min Rain = 0
KAI1 140815Z 08008KT 22/19 A3016 RMK A01 T02220185  RH  080%=      5-min Rain = 0
KAI1 140816Z 08008KT 22/19 A3016 RMK A01 T02210185  RH  080%=      5-min Rain = 0
KAI1 140817Z 08007KT 22/19 A3016 RMK A01 T02210185  RH  080%=      5-min Rain = 0
KAI1 140818Z 09008KT 22/19 A3016 RMK A01 T02200185  RH  080%=      5-min Rain = 0
KAI1 140819Z 08007KT 22/19 A3016 RMK A01 T02200185  RH  080%=      5-min Rain = 0
KAI1 140820Z 09007KT 22/19 A3016 RMK A01 T02200185  RH  081%=      5-min Rain = 0
KAI1 140821Z 08007KT 22/19 A3016 RMK A01 T02200185  RH  081%=      5-min Rain = 0
KAI1 140822Z 08007KT 22/19 A3016 RMK A01 T02200185  RH  081%=      5-min Rain = 0
KAI1 140823Z 08007KT 22/19 A3016 RMK A01 T02200185  RH  081%=      5-min Rain = 0
KAI1 140824Z 08007KT 22/19 A3016 RMK A01 T02200185  RH  081%=      5-min Rain = 0
KAI1 140825Z 07007KT 22/19 A3017 RMK A01 T02190185  RH  081%=      5-min Rain = 0
KAI1 140826Z 07008KT 22/19 A3017 RMK A01 T02190186  RH  081%=      5-min Rain = 0
KAI1 140827Z 07007KT 22/19 A3017 RMK A01 T02190185  RH  081%=      5-min Rain = 0
KAI1 140828Z 06008KT 22/19 A3017 RMK A01 T02190185  RH  081%=      5-min Rain = 0
KAI1 140829Z 07008KT 22/19 A3017 RMK A01 T02190185  RH  081%=      5-min Rain = 0
KAI1 140830Z 07008KT 22/19 A3017 RMK A01 T02190185  RH  081%=      5-min Rain = 0
KAI1 140831Z 07006KT 22/19 A3017 RMK A01 T02190186  RH  081%=      5-min Rain = 0
KAI1 140832Z 07007KT 22/19 A3017 RMK A01 T02190185  RH  081%=      5-min Rain = 0
KAI1 140833Z 06007KT 22/19 A3017 RMK A01 T02190186  RH  081%=      5-min Rain = 0
KAI1 140834Z 06007KT 22/19 A3017 RMK A01 T02180185  RH  081%=      5-min Rain = 0
KAI1 140835Z 06007KT 22/19 A3017 RMK A01 T02190185  RH  081%=      5-min Rain = 0
KAI1 140836Z 06007KT 22/19 A3017 RMK A01 T02190185  RH  081%=      5-min Rain = 0
KAI1 140837Z 06007KT 22/19 A3017 RMK A01 T02190185  RH  081%=      5-min Rain = 0
KAI1 140838Z 06007KT 22/19 A3017 RMK A01 T02190185  RH  081%=      5-min Rain = 0
KAI1 140839Z 06007KT 22/19 A3017 RMK A01 T02190185  RH  081%=      5-min Rain = 0
KAI1 140840Z 06006KT 22/19 A3017 RMK A01 T02180185  RH  081%=      5-min Rain = 0
KAI1 140841Z 07006KT 22/19 A3017 RMK A01 T02180185  RH  081%=      5-min Rain = 0
KAI1 140842Z 08006KT 22/19 A3017 RMK A01 T02180185  RH  081%=      5-min Rain = 0
KAI1 140843Z 08006KT 22/18 A3016 RMK A01 T02180184  RH  081%=      5-min Rain = 0
KAI1 140844Z 09006KT 22/18 A3016 RMK A01 T02170184  RH  081%=      5-min Rain = 0
KAI1 140845Z 09006KT 22/18 A3016 RMK A01 T02170184  RH  082%=      5-min Rain = 0
KAI1 140846Z 09006KT 22/18 A3016 RMK A01 T02160184  RH  082%=      5-min Rain = 0
KAI1 140847Z 09006KT 22/18 A3016 RMK A01 T02150184  RH  082%=      5-min Rain = 0
KAI1 140848Z 08006KT 22/18 A3016 RMK A01 T02150184  RH  083%=      5-min Rain = 0
KAI1 140849Z 06007KT 22/18 A3017 RMK A01 T02150184  RH  083%=      5-min Rain = 0
KAI1 140850Z 05008KT 21/18 A3017 RMK A01 T02140184  RH  083%=      5-min Rain = 0
KAI1 140851Z 04008KT 21/18 A3017 RMK A01 T02130184  RH  084%=      5-min Rain = 0
KAI1 140852Z 04007KT 21/18 A3018 RMK A01 T02120184  RH  084%=      5-min Rain = 0
KAI1 140853Z 04011KT 21/18 A3018 RMK A01 T02110184  RH  084%=      5-min Rain = 0
KAI1 140854Z 05009KT 21/18 A3018 RMK A01 T02120184  RH  084%=      5-min Rain = 0
KAI1 140855Z 05008KT 21/18 A3018 RMK A01 T02130184  RH  083%=      5-min Rain = 0
KAI1 140856Z 06008KT 21/18 A3018 RMK A01 T02140184  RH  083%=      5-min Rain = 0
KAI1 140857Z 06010KT 21/18 A3018 RMK A01 T02140184  RH  083%=      5-min Rain = 0
KAI1 140858Z 06009KT 22/18 A3018 RMK A01 T02150184  RH  083%=      5-min Rain = 0
KAI1 140859Z 06010KT 22/18 A3018 RMK A01 T02150184  RH  082%=      5-min Rain = 0
KAI1 140900Z 06011KT 22/18 A3018 RMK A01 T02150184  RH  082%=      5-min Rain = 0
KAI1 140901Z 06010KT 22/18 A3018 RMK A01 T02160184  RH  082%=      5-min Rain = 0
KAI1 140902Z 05009KT 22/18 A3018 RMK A01 T02160184  RH  082%=      5-min Rain = 0
KAI1 140903Z 06010KT 22/18 A3018 RMK A01 T02160184  RH  082%=      5-min Rain = 0
KAI1 140904Z 06009KT 22/18 A3018 RMK A01 T02160184  RH  082%=      5-min Rain = 0
KAI1 140905Z 05008KT 22/18 A3018 RMK A01 T02160184  RH  082%=      5-min Rain = 0
KAI1 140906Z 05008KT 22/18 A3018 RMK A01 T02150184  RH  082%=      5-min Rain = 0
KAI1 140907Z 05008KT 22/18 A3018 RMK A01 T02150184  RH  083%=      5-min Rain = 0
KAI1 140908Z 05008KT 21/18 A3018 RMK A01 T02140183  RH  083%=      5-min Rain = 0
KAI1 140909Z 05007KT 21/18 A3018 RMK A01 T02140183  RH  083%=      5-min Rain = 0
KAI1 140910Z 05006KT 21/18 A3018 RMK A01 T02130183  RH  083%=      5-min Rain = 0
KAI1 140911Z 05005KT 21/18 A3018 RMK A01 T02130183  RH  083%=      5-min Rain = 0
KAI1 140912Z 06005KT 21/18 A3018 RMK A01 T02120183  RH  083%=      5-min Rain = 0
KAI1 140913Z 06006KT 21/18 A3018 RMK A01 T02120183  RH  084%=      5-min Rain = 0
KAI1 140914Z 07005KT 21/18 A3018 RMK A01 T02110183  RH  084%=      5-min Rain = 0
KAI1 140915Z 07006KT 21/18 A3018 RMK A01 T02110183  RH  084%=      5-min Rain = 0
KAI1 140916Z 07006KT 21/18 A3018 RMK A01 T02110183  RH  084%=      5-min Rain = 0
KAI1 140917Z 06006KT 21/18 A3018 RMK A01 T02100182  RH  084%=      5-min Rain = 0
KAI1 140918Z 06006KT 21/18 A3018 RMK A01 T02100183  RH  084%=      5-min Rain = 0
KAI1 140919Z 05006KT 21/18 A3018 RMK A01 T02090182  RH  085%=      5-min Rain = 0
KAI1 140920Z 05006KT 21/18 A3018 RMK A01 T02090182  RH  085%=      5-min Rain = 0
KAI1 140921Z 05005KT 21/18 A3018 RMK A01 T02080182  RH  085%=      5-min Rain = 0
KAI1 140922Z 06004KT 21/18 A3018 RMK A01 T02070182  RH  086%=      5-min Rain = 0
KAI1 140923Z 06004KT 21/18 A3018 RMK A01 T02070182  RH  086%=      5-min Rain = 0
KAI1 140924Z 05006KT 21/18 A3018 RMK A01 T02060182  RH  086%=      5-min Rain = 0
KAI1 140925Z 04006KT 21/18 A3018 RMK A01 T02060182  RH  086%=      5-min Rain = 0
KAI1 140926Z 05006KT 21/18 A3018 RMK A01 T02060182  RH  086%=      5-min Rain = 0
KAI1 140927Z 05006KT 21/18 A3018 RMK A01 T02060183  RH  086%=      5-min Rain = 0
KAI1 140928Z 06007KT 21/18 A3018 RMK A01 T02050182  RH  086%=      5-min Rain = 0
KAI1 140929Z 05007KT 21/18 A3018 RMK A01 T02060181  RH  086%=      5-min Rain = 0
KAI1 140930Z 05008KT 21/18 A3018 RMK A01 T02060181  RH  086%=      5-min Rain = 0
KAI1 140931Z 05009KT 21/18 A3018 RMK A01 T02060181  RH  086%=      5-min Rain = 0
KAI1 140932Z 06008KT 21/18 A3018 RMK A01 T02060180  RH  085%=      5-min Rain = 0
KAI1 140933Z 06009KT 21/18 A3018 RMK A01 T02060179  RH  085%=      5-min Rain = 0
KAI1 140934Z 06010G15KT 21/18 A3019 RMK A01 T02060179  RH  084%=      5-min Rain = 0
KAI1 140935Z 06012KT 21/17 A3019 RMK A01 T02060174  RH  082%=      5-min Rain = 0
KAI1 140936Z 05010KT 21/17 A3019 RMK A01 T02070172  RH  080%=      5-min Rain = 0
KAI1 140937Z 05010KT 21/17 A3019 RMK A01 T02070171  RH  080%=      5-min Rain = 0
KAI1 140938Z 05008KT 21/17 A3019 RMK A01 T02070169  RH  079%=      5-min Rain = 0
KAI1 140939Z 05010KT 21/17 A3019 RMK A01 T02070169  RH  079%=      5-min Rain = 0
KAI1 140940Z 05010KT 21/17 A3019 RMK A01 T02060167  RH  078%=      5-min Rain = 0
KAI1 140941Z 05011KT 21/17 A3019 RMK A01 T02050165  RH  078%=      5-min Rain = 0
KAI1 140942Z 05010KT 21/16 A3019 RMK A01 T02050164  RH  077%=      5-min Rain = 0
KAI1 140943Z 05009KT 21/16 A3019 RMK A01 T02050164  RH  077%=      5-min Rain = 0
KAI1 140944Z 06010KT 21/16 A3019 RMK A01 T02050163  RH  077%=      5-min Rain = 0
KAI1 140945Z 06010KT 21/16 A3019 RMK A01 T02050162  RH  077%=      5-min Rain = 0
KAI1 140946Z 06009KT 21/16 A302 RMK A01 T02050162  RH  076%=      5-min Rain = 0
KAI1 140947Z 06009KT 20/16 A302 RMK A01 T02040161  RH  076%=      5-min Rain = 0
KAI1 140948Z 05010KT 20/16 A302 RMK A01 T02040161  RH  076%=      5-min Rain = 0
KAI1 140949Z 05010KT 20/16 A302 RMK A01 T02030160  RH  076%=      5-min Rain = 0
KAI1 140950Z 05009KT 20/16 A302 RMK A01 T02030160  RH  076%=      5-min Rain = 0
KAI1 140951Z 05011KT 20/16 A302 RMK A01 T02020160  RH  076%=      5-min Rain = 0
KAI1 140952Z 05007KT 20/16 A302 RMK A01 T02020159  RH  076%=      5-min Rain = 0
KAI1 140953Z 05007KT 20/16 A302 RMK A01 T02020160  RH  076%=      5-min Rain = 0
KAI1 140954Z 05006KT 20/16 A302 RMK A01 T02010159  RH  077%=      5-min Rain = 0
KAI1 140955Z 05006KT 20/16 A302 RMK A01 T02010159  RH  077%=      5-min Rain = 0
KAI1 140956Z 05007KT 20/16 A3021 RMK A01 T02000159  RH  077%=      5-min Rain = 0
KAI1 140957Z 04008KT 20/16 A3021 RMK A01 T02000159  RH  077%=      5-min Rain = 0
KAI1 140958Z 04006KT 20/16 A3021 RMK A01 T01990159  RH  078%=      5-min Rain = 0
KAI1 140959Z 04005KT 20/16 A3021 RMK A01 T01990159  RH  078%=      5-min Rain = 0
KAI1 141000Z 04007KT 20/16 A3021 RMK A01 T01980159  RH  078%=      5-min Rain = 0
KAI1 141001Z 04006KT 20/16 A3021 RMK A01 T01980158  RH  078%=      5-min Rain = 0
KAI1 141002Z 04005KT 20/16 A3021 RMK A01 T01980158  RH  078%=      5-min Rain = 0
KAI1 141003Z 05007KT 20/16 A3021 RMK A01 T01980158  RH  078%=      5-min Rain = 0
KAI1 141004Z 04008KT 20/16 A3021 RMK A01 T01970157  RH  078%=      5-min Rain = 0
KAI1 141005Z 05008KT 20/16 A3021 RMK A01 T01970156  RH  077%=      5-min Rain = 0
KAI1 141006Z 05007KT 20/16 A3021 RMK A01 T01970156  RH  077%=      5-min Rain = 0
KAI1 141007Z 05009KT 20/16 A3021 RMK A01 T01980156  RH  077%=      5-min Rain = 0
KAI1 141008Z 05008KT 20/15 A3021 RMK A01 T01970154  RH  076%=      5-min Rain = 0
KAI1 141009Z 05007KT 20/15 A3021 RMK A01 T01970153  RH  076%=      5-min Rain = 0
KAI1 141010Z 05007KT 20/15 A3021 RMK A01 T01970153  RH  076%=      5-min Rain = 0
KAI1 141011Z 05007KT 20/15 A3021 RMK A01 T01970153  RH  076%=      5-min Rain = 0
KAI1 141012Z 05008KT 20/15 A3021 RMK A01 T01970152  RH  075%=      5-min Rain = 0
KAI1 141013Z 05009KT 20/15 A3021 RMK A01 T01960151  RH  075%=      5-min Rain = 0
KAI1 141014Z 05008KT 20/15 A3021 RMK A01 T01960151  RH  075%=      5-min Rain = 0
KAI1 141015Z 05010KT 20/15 A3022 RMK A01 T01960150  RH  075%=      5-min Rain = 0
KAI1 141016Z 05009KT 20/15 A3022 RMK A01 T01960149  RH  074%=      5-min Rain = 0
KAI1 141017Z 04009KT 20/15 A3022 RMK A01 T01960149  RH  075%=      5-min Rain = 0
KAI1 141018Z 04008KT 20/15 A3022 RMK A01 T01950149  RH  075%=      5-min Rain = 0
KAI1 141019Z 04008KT 20/15 A3022 RMK A01 T01950149  RH  075%=      5-min Rain = 0
KAI1 141020Z 04008KT 19/15 A3022 RMK A01 T01940149  RH  075%=      5-min Rain = 0
KAI1 141021Z 04008KT 19/15 A3022 RMK A01 T01940148  RH  075%=      5-min Rain = 0
KAI1 141022Z 04008KT 19/15 A3022 RMK A01 T01940148  RH  075%=      5-min Rain = 0
KAI1 141023Z 04008KT 19/15 A3022 RMK A01 T01940149  RH  075%=      5-min Rain = 0
KAI1 141024Z 03008KT 19/15 A3022 RMK A01 T01940149  RH  075%=      5-min Rain = 0
KAI1 141025Z 03007KT 19/15 A3022 RMK A01 T01930149  RH  076%=      5-min Rain = 0
KAI1 141026Z 03007KT 19/15 A3022 RMK A01 T01920150  RH  076%=      5-min Rain = 0
KAI1 141027Z 03007KT 19/15 A3022 RMK A01 T01920150  RH  077%=      5-min Rain = 0
KAI1 141028Z 03006KT 19/15 A3022 RMK A01 T01910151  RH  077%=      5-min Rain = 0
KAI1 141029Z 03006KT 19/15 A3022 RMK A01 T01900151  RH  078%=      5-min Rain = 0
KAI1 141030Z 03006KT 19/15 A3022 RMK A01 T01900151  RH  078%=      5-min Rain = 0
KAI1 141031Z 03006KT 19/15 A3022 RMK A01 T01890151  RH  078%=      5-min Rain = 0
KAI1 141032Z 04008KT 19/15 A3022 RMK A01 T01890150  RH  078%=      5-min Rain = 0
KAI1 141033Z 03008KT 19/15 A3022 RMK A01 T01890149  RH  078%=      5-min Rain = 0
KAI1 141034Z 03007KT 19/15 A3022 RMK A01 T01890149  RH  077%=      5-min Rain = 0
KAI1 141035Z 04007KT 19/15 A3022 RMK A01 T01890148  RH  077%=      5-min Rain = 0
KAI1 141036Z 04007KT 19/15 A3022 RMK A01 T01890148  RH  077%=      5-min Rain = 0
KAI1 141037Z 03007KT 19/15 A3022 RMK A01 T01890148  RH  077%=      5-min Rain = 0
KAI1 141038Z 04007KT 19/15 A3022 RMK A01 T01890148  RH  077%=      5-min Rain = 0
KAI1 141039Z 04008KT 19/15 A3022 RMK A01 T01880146  RH  077%=      5-min Rain = 0
KAI1 141040Z 04007KT 19/15 A3022 RMK A01 T01880146  RH  076%=      5-min Rain = 0
KAI1 141041Z 04008KT 19/15 A3022 RMK A01 T01880146  RH  076%=      5-min Rain = 0
KAI1 141042Z 04008KT 19/15 A3022 RMK A01 T01880146  RH  076%=      5-min Rain = 0
KAI1 141043Z 04008KT 19/15 A3022 RMK A01 T01890146  RH  076%=      5-min Rain = 0
KAI1 141044Z 04007KT 19/15 A3022 RMK A01 T01880146  RH  076%=      5-min Rain = 0
KAI1 141045Z 04008KT 19/15 A3022 RMK A01 T01880146  RH  076%=      5-min Rain = 0
KAI1 141046Z 04008KT 19/15 A3022 RMK A01 T01880145  RH  076%=      5-min Rain = 0
KAI1 141047Z 03007KT 19/15 A3022 RMK A01 T01870145  RH  076%=      5-min Rain = 0
KAI1 141048Z 03008KT 19/15 A3022 RMK A01 T01870145  RH  077%=      5-min Rain = 0
KAI1 141049Z 03007KT 19/15 A3022 RMK A01 T01870145  RH  077%=      5-min Rain = 0
KAI1 141050Z 03008KT 19/15 A3022 RMK A01 T01860145  RH  077%=      5-min Rain = 0
KAI1 141051Z 03008KT 19/15 A3022 RMK A01 T01860145  RH  077%=      5-min Rain = 0
KAI1 141052Z 03009KT 19/15 A3022 RMK A01 T01860145  RH  077%=      5-min Rain = 0
KAI1 141053Z 03007KT 19/15 A3022 RMK A01 T01860145  RH  077%=      5-min Rain = 0
KAI1 141054Z 03008KT 19/15 A3022 RMK A01 T01850145  RH  077%=      5-min Rain = 0
KAI1 141055Z 03008KT 19/15 A3022 RMK A01 T01850145  RH  077%=      5-min Rain = 0
KAI1 141056Z 03008KT 19/15 A3022 RMK A01 T01850145  RH  077%=      5-min Rain = 0
KAI1 141057Z 02008KT 19/15 A3022 RMK A01 T01850145  RH  078%=      5-min Rain = 0
KAI1 141058Z 03007KT 18/15 A3022 RMK A01 T01840145  RH  078%=      5-min Rain = 0
KAI1 141059Z 02008KT 18/15 A3022 RMK A01 T01840145  RH  078%=      5-min Rain = 0
KAI1 141100Z 02007KT 18/15 A3022 RMK A01 T01830145  RH  078%=      5-min Rain = 0
KAI1 141101Z 02007KT 18/15 A3022 RMK A01 T01830145  RH  078%=      5-min Rain = 0
KAI1 141102Z 03008KT 18/15 A3022 RMK A01 T01820145  RH  079%=      5-min Rain = 0
KAI1 141103Z 02007KT 18/14 A3022 RMK A01 T01820144  RH  078%=      5-min Rain = 0
KAI1 141104Z 02008KT 18/14 A3022 RMK A01 T01820144  RH  078%=      5-min Rain = 0
KAI1 141105Z 02008KT 18/14 A3022 RMK A01 T01820144  RH  078%=      5-min Rain = 0
KAI1 141106Z 02009KT 18/14 A3022 RMK A01 T01820144  RH  078%=      5-min Rain = 0
KAI1 141107Z 02009KT 18/14 A3022 RMK A01 T01820143  RH  078%=      5-min Rain = 0
KAI1 141108Z 02009KT 18/14 A3022 RMK A01 T01820143  RH  078%=      5-min Rain = 0
KAI1 141109Z 03010KT 18/14 A3022 RMK A01 T01820143  RH  078%=      5-min Rain = 0
KAI1 141110Z 03009KT 18/14 A3022 RMK A01 T01820142  RH  078%=      5-min Rain = 0
KAI1 141111Z 03009KT 18/14 A3022 RMK A01 T01820142  RH  077%=      5-min Rain = 0
KAI1 141112Z 03009KT 18/14 A3022 RMK A01 T01820142  RH  077%=      5-min Rain = 0
KAI1 141113Z 03009KT 18/14 A3022 RMK A01 T01820141  RH  077%=      5-min Rain = 0
KAI1 141114Z 03010KT 18/14 A3022 RMK A01 T01820141  RH  077%=      5-min Rain = 0
KAI1 141115Z 03011KT 18/14 A3023 RMK A01 T01820141  RH  077%=      5-min Rain = 0
KAI1 141116Z 02010KT 18/14 A3023 RMK A01 T01820141  RH  077%=      5-min Rain = 0
KAI1 141117Z 03010KT 18/14 A3023 RMK A01 T01820141  RH  077%=      5-min Rain = 0
KAI1 141118Z 02010KT 18/14 A3023 RMK A01 T01820141  RH  077%=      5-min Rain = 0
KAI1 141119Z 02011KT 18/14 A3023 RMK A01 T01820141  RH  077%=      5-min Rain = 0
KAI1 141120Z 02010KT 18/14 A3023 RMK A01 T01820140  RH  077%=      5-min Rain = 0
KAI1 141121Z 03010KT 18/14 A3023 RMK A01 T01820140  RH  077%=      5-min Rain = 0
KAI1 141122Z 03010KT 18/14 A3023 RMK A01 T01820140  RH  076%=      5-min Rain = 0
KAI1 141123Z 03009KT 18/14 A3023 RMK A01 T01820140  RH  077%=      5-min Rain = 0
KAI1 141124Z 04010KT 18/14 A3023 RMK A01 T01820140  RH  077%=      5-min Rain = 0
KAI1 141125Z 03010KT 18/14 A3023 RMK A01 T01810140  RH  077%=      5-min Rain = 0
KAI1 141126Z 03009KT 18/14 A3023 RMK A01 T01810140  RH  077%=      5-min Rain = 0
KAI1 141127Z 03010KT 18/14 A3023 RMK A01 T01810140  RH  077%=      5-min Rain = 0
KAI1 141128Z 03009KT 18/14 A3023 RMK A01 T01810140  RH  077%=      5-min Rain = 0
KAI1 141129Z 03010KT 18/14 A3023 RMK A01 T01810140  RH  077%=      5-min Rain = 0
KAI1 141130Z 04010KT 18/14 A3023 RMK A01 T01810140  RH  077%=      5-min Rain = 0
KAI1 141131Z 03010KT 18/14 A3023 RMK A01 T01810139  RH  077%=      5-min Rain = 0
KAI1 141132Z 03010KT 18/14 A3023 RMK A01 T01810140  RH  077%=      5-min Rain = 0
KAI1 141133Z 03010KT 18/14 A3023 RMK A01 T01810139  RH  077%=      5-min Rain = 0
KAI1 141134Z 04008KT 18/14 A3023 RMK A01 T01800139  RH  077%=      5-min Rain = 0
KAI1 141135Z 03010KT 18/14 A3023 RMK A01 T01810140  RH  077%=      5-min Rain = 0
KAI1 141136Z 04009KT 18/14 A3023 RMK A01 T01800140  RH  077%=      5-min Rain = 0
KAI1 141137Z 04009KT 18/14 A3023 RMK A01 T01810140  RH  077%=      5-min Rain = 0
KAI1 141138Z 04008KT 18/14 A3023 RMK A01 T01810140  RH  077%=      5-min Rain = 0
KAI1 141139Z 04010KT 18/14 A3023 RMK A01 T01800140  RH  077%=      5-min Rain = 0
KAI1 141140Z 04009KT 18/14 A3023 RMK A01 T01800139  RH  077%=      5-min Rain = 0
KAI1 141141Z 04008KT 18/14 A3023 RMK A01 T01800140  RH  077%=      5-min Rain = 0
KAI1 141142Z 03009KT 18/14 A3023 RMK A01 T01800140  RH  077%=      5-min Rain = 0
KAI1 141143Z 04009KT 18/14 A3023 RMK A01 T01800140  RH  077%=      5-min Rain = 0
KAI1 141144Z 04009KT 18/14 A3024 RMK A01 T01800140  RH  077%=      5-min Rain = 0
KAI1 141145Z 04009KT 18/14 A3024 RMK A01 T01800140  RH  077%=      5-min Rain = 0
KAI1 141146Z 04009KT 18/14 A3024 RMK A01 T01800140  RH  077%=      5-min Rain = 0
KAI1 141147Z 04009KT 18/14 A3024 RMK A01 T01800140  RH  077%=      5-min Rain = 0
KAI1 141148Z 04008KT 18/14 A3024 RMK A01 T01800140  RH  077%=      5-min Rain = 0
KAI1 141149Z 04009KT 18/14 A3024 RMK A01 T01800140  RH  077%=      5-min Rain = 0
KAI1 141150Z 04008KT 18/14 A3024 RMK A01 T01800140  RH  078%=      5-min Rain = 0
KAI1 141151Z 04007KT 18/14 A3024 RMK A01 T01800141  RH  078%=      5-min Rain = 0
KAI1 141152Z 04007KT 18/14 A3024 RMK A01 T01790141  RH  078%=      5-min Rain = 0
KAI1 141153Z 03008KT 18/14 A3024 RMK A01 T01790140  RH  078%=      5-min Rain = 0
KAI1 141154Z 04006KT 18/14 A3024 RMK A01 T01790141  RH  078%=      5-min Rain = 0
KAI1 141155Z 04009KT 18/14 A3024 RMK A01 T01790141  RH  079%=      5-min Rain = 0
KAI1 141156Z 04007KT 18/14 A3024 RMK A01 T01780141  RH  079%=      5-min Rain = 0
KAI1 141157Z 04007KT 18/14 A3024 RMK A01 T01780141  RH  079%=      5-min Rain = 0
KAI1 141158Z 04007KT 18/14 A3024 RMK A01 T01780141  RH  079%=      5-min Rain = 0
KAI1 141159Z 04006KT 18/14 A3024 RMK A01 T01780141  RH  079%=      5-min Rain = 0
KAI1 141200Z 04007KT 18/14 A3024 RMK A01 T01770142  RH  079%=      5-min Rain = 0
KAI1 141201Z 04007KT 18/14 A3024 RMK A01 T01770141  RH  079%=      5-min Rain = 0
KAI1 141202Z 03007KT 18/14 A3024 RMK A01 T01770141  RH  080%=      5-min Rain = 0
KAI1 141203Z 03007KT 18/14 A3024 RMK A01 T01770142  RH  080%=      5-min Rain = 0
KAI1 141204Z 03006KT 18/14 A3024 RMK A01 T01770141  RH  080%=      5-min Rain = 0
KAI1 141205Z 03007KT 18/14 A3024 RMK A01 T01760142  RH  080%=      5-min Rain = 0
KAI1 141206Z 03007KT 18/14 A3024 RMK A01 T01760142  RH  080%=      5-min Rain = 0
KAI1 141207Z 03007KT 18/14 A3024 RMK A01 T01760142  RH  080%=      5-min Rain = 0
KAI1 141208Z 03006KT 18/14 A3024 RMK A01 T01760142  RH  080%=      5-min Rain = 0
KAI1 141209Z 04006KT 18/14 A3024 RMK A01 T01760142  RH  080%=      5-min Rain = 0
KAI1 141210Z 04006KT 18/14 A3024 RMK A01 T01750141  RH  080%=      5-min Rain = 0
KAI1 141211Z 03007KT 18/14 A3025 RMK A01 T01760142  RH  081%=      5-min Rain = 0
KAI1 141212Z 03007KT 18/14 A3025 RMK A01 T01750142  RH  081%=      5-min Rain = 0
KAI1 141213Z 04006KT 18/14 A3025 RMK A01 T01750142  RH  081%=      5-min Rain = 0
KAI1 141214Z 03007KT 18/14 A3025 RMK A01 T01750142  RH  081%=      5-min Rain = 0
KAI1 141215Z 03007KT 18/14 A3025 RMK A01 T01750142  RH  081%=      5-min Rain = 0
KAI1 141216Z 03007KT 18/14 A3025 RMK A01 T01750142  RH  081%=      5-min Rain = 0
KAI1 141217Z 03007KT 18/14 A3025 RMK A01 T01750142  RH  081%=      5-min Rain = 0
KAI1 141218Z 02007KT 18/14 A3025 RMK A01 T01750143  RH  081%=      5-min Rain = 0
KAI1 141219Z 02007KT 18/14 A3025 RMK A01 T01750143  RH  081%=      5-min Rain = 0
KAI1 141220Z 03007KT 18/14 A3025 RMK A01 T01750143  RH  082%=      5-min Rain = 0
KAI1 141221Z 03007KT 18/14 A3025 RMK A01 T01750143  RH  082%=      5-min Rain = 0
KAI1 141222Z 03007KT 18/14 A3025 RMK A01 T01750143  RH  082%=      5-min Rain = 0
KAI1 141223Z 03007KT 18/14 A3025 RMK A01 T01750143  RH  082%=      5-min Rain = 0
KAI1 141224Z 04007KT 18/14 A3025 RMK A01 T01750143  RH  081%=      5-min Rain = 0
KAI1 141225Z 04007KT 18/14 A3025 RMK A01 T01750143  RH  081%=      5-min Rain = 0
KAI1 141226Z 04007KT 18/14 A3025 RMK A01 T01750142  RH  081%=      5-min Rain = 0
KAI1 141227Z 04006KT 18/14 A3025 RMK A01 T01760143  RH  081%=      5-min Rain = 0
KAI1 141228Z 04007KT 18/14 A3025 RMK A01 T01760142  RH  081%=      5-min Rain = 0
KAI1 141229Z 04007KT 18/14 A3025 RMK A01 T01760143  RH  081%=      5-min Rain = 0
KAI1 141230Z 03007KT 18/14 A3025 RMK A01 T01770143  RH  081%=      5-min Rain = 0
KAI1 141231Z 04006KT 18/14 A3025 RMK A01 T01770143  RH  080%=      5-min Rain = 0
KAI1 141232Z 04006KT 18/14 A3025 RMK A01 T01780143  RH  080%=      5-min Rain = 0
KAI1 141233Z 03007KT 18/14 A3025 RMK A01 T01770143  RH  080%=      5-min Rain = 0
KAI1 141234Z 03006KT 18/14 A3025 RMK A01 T01780143  RH  080%=      5-min Rain = 0
KAI1 141235Z 03006KT 18/14 A3025 RMK A01 T01780144  RH  080%=      5-min Rain = 0
KAI1 141236Z 03006KT 18/14 A3025 RMK A01 T01780144  RH  080%=      5-min Rain = 0
KAI1 141237Z 03006KT 18/14 A3025 RMK A01 T01780144  RH  080%=      5-min Rain = 0
KAI1 141238Z 03006KT 18/14 A3025 RMK A01 T01780144  RH  081%=      5-min Rain = 0
KAI1 141239Z 03006KT 18/14 A3025 RMK A01 T01780144  RH  081%=      5-min Rain = 0
KAI1 141240Z 04006KT 18/15 A3025 RMK A01 T01780145  RH  081%=      5-min Rain = 0
KAI1 141241Z 03007KT 18/14 A3025 RMK A01 T01780144  RH  081%=      5-min Rain = 0
KAI1 141242Z 03006KT 18/14 A3025 RMK A01 T01780144  RH  081%=      5-min Rain = 0
KAI1 141243Z 02008KT 18/15 A3025 RMK A01 T01780145  RH  081%=      5-min Rain = 0
KAI1 141244Z 00010KT 18/15 A3026 RMK A01 T01770145  RH  081%=      5-min Rain = 0
KAI1 141245Z 36011KT 18/15 A3026 RMK A01 T01770145  RH  082%=      5-min Rain = 0
KAI1 141246Z 36012KT 18/15 A3026 RMK A01 T01770145  RH  082%=      5-min Rain = 0
KAI1 141247Z 01010KT 18/14 A3026 RMK A01 T01770144  RH  081%=      5-min Rain = 0
KAI1 141248Z 01008KT 18/14 A3026 RMK A01 T01770144  RH  081%=      5-min Rain = 0
KAI1 141249Z 02008KT 18/14 A3026 RMK A01 T01770143  RH  080%=      5-min Rain = 0
KAI1 141250Z 04006KT 18/14 A3026 RMK A01 T01780143  RH  080%=      5-min Rain = 0
KAI1 141251Z 03007KT 18/14 A3026 RMK A01 T01790143  RH  080%=      5-min Rain = 0
KAI1 141252Z 02008KT 18/14 A3026 RMK A01 T01790142  RH  079%=      5-min Rain = 0
KAI1 141253Z 01009KT 18/14 A3026 RMK A01 T01800143  RH  078%=      5-min Rain = 0
KAI1 141254Z 01009KT 18/14 A3026 RMK A01 T01820143  RH  078%=      5-min Rain = 0
KAI1 141255Z 01008KT 18/14 A3026 RMK A01 T01820143  RH  078%=      5-min Rain = 0
KAI1 141256Z 02006KT 18/14 A3026 RMK A01 T01830144  RH  078%=      5-min Rain = 0
KAI1 141257Z 02006KT 18/14 A3026 RMK A01 T01840143  RH  077%=      5-min Rain = 0
KAI1 141258Z 02005KT 19/14 A3026 RMK A01 T01850143  RH  077%=      5-min Rain = 0
KAI1 141259Z 02005KT 19/14 A3026 RMK A01 T01850144  RH  077%=      5-min Rain = 0
KAI1 141300Z 03005KT 19/15 A3026 RMK A01 T01860145  RH  077%=      5-min Rain = 0
KAI1 141301Z 03006KT 19/14 A3026 RMK A01 T01870144  RH  076%=      5-min Rain = 0
KAI1 141302Z 04006KT 19/14 A3026 RMK A01 T01870143  RH  075%=      5-min Rain = 0
KAI1 141303Z 03006KT 19/14 A3026 RMK A01 T01880144  RH  075%=      5-min Rain = 0
KAI1 141304Z 03005KT 19/14 A3026 RMK A01 T01890144  RH  075%=      5-min Rain = 0
KAI1 141305Z 03006KT 19/14 A3026 RMK A01 T01890144  RH  075%=      5-min Rain = 0
KAI1 141306Z 03005KT 19/14 A3026 RMK A01 T01900144  RH  075%=      5-min Rain = 0
KAI1 141307Z 03006KT 19/15 A3026 RMK A01 T01910145  RH  075%=      5-min Rain = 0
KAI1 141308Z 04005KT 19/14 A3025 RMK A01 T01910144  RH  074%=      5-min Rain = 0
KAI1 141309Z 04006KT 19/15 A3026 RMK A01 T01920145  RH  074%=      5-min Rain = 0
KAI1 141310Z 03006KT 19/15 A3026 RMK A01 T01920145  RH  074%=      5-min Rain = 0
KAI1 141311Z 03005KT 19/15 A3026 RMK A01 T01920145  RH  074%=      5-min Rain = 0
KAI1 141312Z 02005KT 19/15 A3026 RMK A01 T01930145  RH  074%=      5-min Rain = 0
KAI1 141313Z 02004KT 19/15 A3026 RMK A01 T01930145  RH  074%=      5-min Rain = 0
KAI1 141314Z 01004KT 19/15 A3026 RMK A01 T01940147  RH  074%=      5-min Rain = 0
KAI1 141315Z 01006KT 19/15 A3026 RMK A01 T01940147  RH  074%=      5-min Rain = 0
KAI1 141316Z 36007KT 20/15 A3027 RMK A01 T01950146  RH  074%=      5-min Rain = 0
KAI1 141317Z 35007KT 20/15 A3027 RMK A01 T01950147  RH  074%=      5-min Rain = 0
KAI1 141318Z 35009KT 20/15 A3027 RMK A01 T01950148  RH  074%=      5-min Rain = 0
KAI1 141319Z 35008KT 20/15 A3027 RMK A01 T01960147  RH  073%=      5-min Rain = 0
KAI1 141320Z 36008KT 20/15 A3027 RMK A01 T01960147  RH  073%=      5-min Rain = 0
KAI1 141321Z 36009KT 20/15 A3027 RMK A01 T01980148  RH  073%=      5-min Rain = 0
KAI1 141322Z 36007KT 20/15 A3027 RMK A01 T01980147  RH  072%=      5-min Rain = 0
KAI1 141323Z 00008KT 20/15 A3027 RMK A01 T01990149  RH  073%=      5-min Rain = 0
KAI1 141324Z 36008KT 20/15 A3027 RMK A01 T01990147  RH  072%=      5-min Rain = 0
KAI1 141325Z 35008KT 20/15 A3027 RMK A01 T01990148  RH  072%=      5-min Rain = 0
KAI1 141326Z 36009KT 20/15 A3027 RMK A01 T01980146  RH  072%=      5-min Rain = 0
KAI1 141327Z 35009KT 20/15 A3027 RMK A01 T01980145  RH  072%=      5-min Rain = 0
KAI1 141328Z 00009KT 20/15 A3027 RMK A01 T01980146  RH  072%=      5-min Rain = 0
KAI1 141329Z 35006KT 20/15 A3027 RMK A01 T01980147  RH  072%=      5-min Rain = 0
KAI1 141330Z 35005KT 20/15 A3027 RMK A01 T02000148  RH  072%=      5-min Rain = 0
KAI1 141331Z 35004KT 20/15 A3027 RMK A01 T02010149  RH  072%=      5-min Rain = 0
KAI1 141332Z 00002KT 20/15 A3026 RMK A01 T02010149  RH  072%=      5-min Rain = 0
KAI1 141333Z 01005KT 20/15 A3026 RMK A01 T02020149  RH  071%=      5-min Rain = 0
KAI1 141334Z 01005KT 20/15 A3026 RMK A01 T02020148  RH  071%=      5-min Rain = 0
KAI1 141335Z 36006KT 20/15 A3027 RMK A01 T02030149  RH  071%=      5-min Rain = 0
KAI1 141336Z 36006KT 20/15 A3026 RMK A01 T02020150  RH  072%=      5-min Rain = 0
KAI1 141337Z 35006KT 20/15 A3027 RMK A01 T02030150  RH  071%=      5-min Rain = 0
KAI1 141338Z 34008KT 20/15 A3027 RMK A01 T02040149  RH  071%=      5-min Rain = 0
KAI1 141339Z 35006KT 20/15 A3027 RMK A01 T02040149  RH  071%=      5-min Rain = 0
KAI1 141340Z 36006KT 20/15 A3027 RMK A01 T02040149  RH  071%=      5-min Rain = 0
KAI1 141341Z 01006KT 20/15 A3027 RMK A01 T02040149  RH  071%=      5-min Rain = 0
KAI1 141342Z 00005KT 20/15 A3027 RMK A01 T02040148  RH  070%=      5-min Rain = 0
KAI1 141343Z 36005KT 20/15 A3027 RMK A01 T02040149  RH  071%=      5-min Rain = 0
KAI1 141344Z 35005KT 20/15 A3027 RMK A01 T02040149  RH  071%=      5-min Rain = 0
KAI1 141345Z 35006KT 20/15 A3027 RMK A01 T02040150  RH  071%=      5-min Rain = 0
KAI1 141346Z 36006KT 20/15 A3027 RMK A01 T02040149  RH  070%=      5-min Rain = 0
KAI1 141347Z 35006KT 20/15 A3027 RMK A01 T02040149  RH  070%=      5-min Rain = 0
KAI1 141348Z 36005KT 21/15 A3027 RMK A01 T02050149  RH  070%=      5-min Rain = 0
KAI1 141349Z 00005KT 21/15 A3027 RMK A01 T02050150  RH  071%=      5-min Rain = 0
KAI1 141350Z 36005KT 21/15 A3027 RMK A01 T02060150  RH  070%=      5-min Rain = 0
KAI1 141351Z 35005KT 21/15 A3027 RMK A01 T02070150  RH  070%=      5-min Rain = 0
KAI1 141352Z 36006KT 21/15 A3027 RMK A01 T02070150  RH  070%=      5-min Rain = 0
KAI1 141353Z 36005KT 21/15 A3028 RMK A01 T02070150  RH  070%=      5-min Rain = 0
KAI1 141354Z 35005KT 21/15 A3028 RMK A01 T02070151  RH  070%=      5-min Rain = 0
KAI1 141355Z 35007KT 21/15 A3028 RMK A01 T02080151  RH  070%=      5-min Rain = 0
KAI1 141356Z 35007KT 21/15 A3028 RMK A01 T02080150  RH  069%=      5-min Rain = 0
KAI1 141357Z 34008KT 21/15 A3028 RMK A01 T02090152  RH  070%=      5-min Rain = 0
KAI1 141358Z 33010KT 21/15 A3029 RMK A01 T02090151  RH  069%=      5-min Rain = 0
KAI1 141359Z 33013KT 21/15 A3029 RMK A01 T02110150  RH  068%=      5-min Rain = 0
KAI1 141400Z 34013KT 21/15 A3029 RMK A01 T02110150  RH  068%=      5-min Rain = 0
KAI1 141401Z 34011KT 21/15 A3029 RMK A01 T02120152  RH  069%=      5-min Rain = 0
KAI1 141402Z 33011KT 21/15 A3029 RMK A01 T02120152  RH  069%=      5-min Rain = 0
KAI1 141403Z 33010KT 21/15 A3029 RMK A01 T02130151  RH  068%=      5-min Rain = 0
KAI1 141404Z 34010KT 21/15 A3029 RMK A01 T02140152  RH  068%=      5-min Rain = 0
KAI1 141405Z 33011KT 22/15 A3029 RMK A01 T02150153  RH  068%=      5-min Rain = 0
KAI1 141406Z 33010KT 22/15 A3029 RMK A01 T02150152  RH  067%=      5-min Rain = 0
KAI1 141407Z 33011KT 21/15 A3029 RMK A01 T02140151  RH  068%=      5-min Rain = 0
KAI1 141408Z 33010KT 21/15 A3029 RMK A01 T02120151  RH  068%=      5-min Rain = 0
KAI1 141409Z 33012KT 21/15 A3029 RMK A01 T02110151  RH  069%=      5-min Rain = 0
KAI1 141410Z 34012KT 21/15 A3029 RMK A01 T02100151  RH  069%=      5-min Rain = 0
KAI1 141411Z 34012KT 21/15 A3029 RMK A01 T02100152  RH  069%=      5-min Rain = 0
KAI1 141412Z 34010KT 21/15 A3029 RMK A01 T02110153  RH  069%=      5-min Rain = 0
KAI1 141413Z 34010KT 21/16 A3029 RMK A01 T02130155  RH  069%=      5-min Rain = 0
KAI1 141414Z 35009KT 22/16 A3029 RMK A01 T02160156  RH  068%=      5-min Rain = 0
KAI1 141415Z 35008KT 22/16 A3029 RMK A01 T02190157  RH  068%=      5-min Rain = 0
KAI1 141416Z 35009KT 22/16 A3029 RMK A01 T02210157  RH  067%=      5-min Rain = 0
KAI1 141417Z 34009KT 22/16 A3029 RMK A01 T02210157  RH  067%=      5-min Rain = 0
KAI1 141418Z 35010KT 22/16 A3029 RMK A01 T02220158  RH  067%=      5-min Rain = 0
KAI1 141419Z 34012KT 22/16 A3029 RMK A01 T02220158  RH  067%=      5-min Rain = 0
KAI1 141420Z 35012KT 22/16 A3029 RMK A01 T02230157  RH  066%=      5-min Rain = 0
KAI1 141421Z 34011KT 22/16 A3029 RMK A01 T02230156  RH  066%=      5-min Rain = 0
KAI1 141422Z 34012KT 23/16 A3029 RMK A01 T02250156  RH  065%=      5-min Rain = 0
KAI1 141423Z 34011KT 23/16 A3029 RMK A01 T02250155  RH  064%=      5-min Rain = 0
KAI1 141424Z 35010KT 23/15 A3029 RMK A01 T02260154  RH  064%=      5-min Rain = 0
KAI1 141425Z 33009KT 23/15 A3029 RMK A01 T02250153  RH  064%=      5-min Rain = 0
KAI1 141426Z 33011KT 22/15 A3029 RMK A01 T02240151  RH  064%=      5-min Rain = 0
KAI1 141427Z 33010KT 22/15 A3029 RMK A01 T02220151  RH  064%=      5-min Rain = 0
KAI1 141428Z 34009KT 22/15 A3029 RMK A01 T02230152  RH  064%=      5-min Rain = 0
KAI1 141429Z 35008KT 22/15 A3029 RMK A01 T02240153  RH  064%=      5-min Rain = 0
KAI1 141430Z 34009KT 23/15 A3029 RMK A01 T02250153  RH  064%=      5-min Rain = 0
KAI1 141431Z 34009KT 23/15 A3029 RMK A01 T02250151  RH  063%=      5-min Rain = 0
KAI1 141432Z 34007KT 22/15 A3029 RMK A01 T02240153  RH  064%=      5-min Rain = 0
KAI1 141433Z 34008KT 22/15 A3029 RMK A01 T02240153  RH  064%=      5-min Rain = 0
KAI1 141434Z 00008KT 22/15 A3029 RMK A01 T02240153  RH  064%=      5-min Rain = 0
KAI1 141435Z 36007KT 22/15 A3029 RMK A01 T02230152  RH  064%=      5-min Rain = 0
KAI1 141436Z 35007KT 22/15 A3029 RMK A01 T02230152  RH  064%=      5-min Rain = 0
KAI1 141437Z 34007KT 22/15 A3029 RMK A01 T02230152  RH  064%=      5-min Rain = 0
KAI1 141438Z 33007KT 22/15 A3029 RMK A01 T02230152  RH  064%=      5-min Rain = 0
KAI1 141439Z 34006KT 22/15 A3029 RMK A01 T02220152  RH  064%=      5-min Rain = 0
KAI1 141440Z 33007KT 22/15 A3028 RMK A01 T02220151  RH  064%=      5-min Rain = 0
KAI1 141441Z 34007KT 22/15 A3028 RMK A01 T02220150  RH  064%=      5-min Rain = 0
KAI1 141442Z 35005KT 22/15 A3028 RMK A01 T02220150  RH  064%=      5-min Rain = 0
KAI1 141443Z 35007KT 22/15 A3028 RMK A01 T02220151  RH  064%=      5-min Rain = 0
KAI1 141444Z 35007KT 22/15 A3028 RMK A01 T02220151  RH  064%=      5-min Rain = 0
KAI1 141445Z 35005KT 22/15 A3028 RMK A01 T02220152  RH  064%=      5-min Rain = 0
KAI1 141446Z 34006KT 22/15 A3028 RMK A01 T02220152  RH  064%=      5-min Rain = 0
KAI1 141447Z 35006KT 22/15 A3028 RMK A01 T02230152  RH  064%=      5-min Rain = 0
KAI1 141448Z 01006KT 22/15 A3028 RMK A01 T02240154  RH  064%=      5-min Rain = 0
KAI1 141449Z 01005KT 22/15 A3028 RMK A01 T02230153  RH  064%=      5-min Rain = 0
KAI1 141450Z 00004KT 22/15 A3028 RMK A01 T02220153  RH  065%=      5-min Rain = 0
KAI1 141451Z 34004KT 22/15 A3028 RMK A01 T02220154  RH  065%=      5-min Rain = 0
KAI1 141452Z 34004KT 22/15 A3028 RMK A01 T02240154  RH  065%=      5-min Rain = 0
KAI1 141453Z 34006KT 23/15 A3028 RMK A01 T02260152  RH  063%=      5-min Rain = 0
KAI1 141454Z 34006KT 23/15 A3028 RMK A01 T02270153  RH  063%=      5-min Rain = 0
KAI1 141455Z 35005KT 23/15 A3028 RMK A01 T02270153  RH  063%=      5-min Rain = 0
KAI1 141456Z 00005KT 23/15 A3028 RMK A01 T02260153  RH  063%=      5-min Rain = 0
KAI1 141457Z 00004KT 23/15 A3028 RMK A01 T02250152  RH  063%=      5-min Rain = 0
KAI1 141458Z 00003KT 23/15 A3028 RMK A01 T02250152  RH  063%=      5-min Rain = 0
KAI1 141459Z 01003KT 23/15 A3028 RMK A01 T02250152  RH  063%=      5-min Rain = 0
KAI1 141500Z 34003KT 23/15 A3028 RMK A01 T02250153  RH  064%=      5-min Rain = 0
KAI1 141501Z 04002KT 23/15 A3028 RMK A01 T02260151  RH  063%=      5-min Rain = 0
KAI1 141502Z 06002KT 23/15 A3028 RMK A01 T02270150  RH  062%=      5-min Rain = 0
KAI1 141503Z 04002KT 23/15 A3027 RMK A01 T02270151  RH  062%=      5-min Rain = 0
KAI1 141504Z 02002KT 23/15 A3027 RMK A01 T02270150  RH  062%=      5-min Rain = 0
KAI1 141505Z 33000KT 23/15 A3027 RMK A01 T02270150  RH  062%=      5-min Rain = 0
KAI1 141506Z 24000KT 23/15 A3027 RMK A01 T02280151  RH  062%=      5-min Rain = 0
KAI1 141507Z 01002KT 23/15 A3027 RMK A01 T02310153  RH  062%=      5-min Rain = 0
KAI1 141508Z 01003KT 23/15 A3027 RMK A01 T02330154  RH  061%=      5-min Rain = 0
KAI1 141509Z 01003KT 23/15 A3027 RMK A01 T02320154  RH  061%=      5-min Rain = 0
KAI1 141510Z 03001KT 23/15 A3027 RMK A01 T02310153  RH  061%=      5-min Rain = 0
KAI1 141511Z 01002KT 23/16 A3027 RMK A01 T02310155  RH  062%=      5-min Rain = 0
KAI1 141512Z 01003KT 23/15 A3027 RMK A01 T02320154  RH  061%=      5-min Rain = 0
KAI1 141513Z 00002KT 23/15 A3027 RMK A01 T02320154  RH  061%=      5-min Rain = 0
KAI1 141514Z 01001KT 23/15 A3027 RMK A01 T02310153  RH  061%=      5-min Rain = 0
KAI1 141515Z 06001KT 23/15 A3027 RMK A01 T02310153  RH  062%=      5-min Rain = 0
KAI1 141516Z 04000KT 23/15 A3027 RMK A01 T02330154  RH  061%=      5-min Rain = 0
KAI1 141517Z 07000KT 24/16 A3026 RMK A01 T02370157  RH  061%=      5-min Rain = 0
KAI1 141518Z 14000KT 24/16 A3026 RMK A01 T02410158  RH  060%=      5-min Rain = 0
KAI1 141519Z 11002KT 24/16 A3026 RMK A01 T02440160  RH  059%=      5-min Rain = 0
KAI1 141520Z 11003KT 25/16 A3026 RMK A01 T02480163  RH  059%=      5-min Rain = 0
KAI1 141521Z 08002KT 25/16 A3026 RMK A01 T02490161  RH  058%=      5-min Rain = 0
KAI1 141522Z 09002KT 25/16 A3026 RMK A01 T02470158  RH  058%=      5-min Rain = 0
KAI1 141523Z 08002KT 25/16 A3026 RMK A01 T02450160  RH  059%=      5-min Rain = 0
KAI1 141524Z 06001KT 24/16 A3026 RMK A01 T02440158  RH  059%=      5-min Rain = 0
KAI1 141525Z 06002KT 24/16 A3026 RMK A01 T02430160  RH  060%=      5-min Rain = 0
KAI1 141526Z 15002KT 24/16 A3026 RMK A01 T02430162  RH  061%=      5-min Rain = 0
KAI1 141527Z 14001KT 24/16 A3026 RMK A01 T02440161  RH  060%=      5-min Rain = 0
KAI1 141528Z 12002KT 24/17 A3026 RMK A01 T02440165  RH  061%=      5-min Rain = 0
KAI1 141529Z 13005KT 25/17 A3025 RMK A01 T02450166  RH  062%=      5-min Rain = 0
KAI1 141530Z 13002KT 24/16 A3025 RMK A01 T02440162  RH  060%=      5-min Rain = 0
KAI1 141531Z 12003KT 24/16 A3025 RMK A01 T02430163  RH  061%=      5-min Rain = 0
KAI1 141532Z 12002KT 24/16 A3025 RMK A01 T02420164  RH  061%=      5-min Rain = 0
KAI1 141533Z 06002KT 24/17 A3026 RMK A01 T02420166  RH  063%=      5-min Rain = 0
KAI1 141534Z 06003KT 24/16 A3026 RMK A01 T02420163  RH  061%=      5-min Rain = 0
KAI1 141535Z 04003KT 24/16 A3026 RMK A01 T02420162  RH  061%=      5-min Rain = 0
KAI1 141536Z 08002KT 24/16 A3026 RMK A01 T02420162  RH  061%=      5-min Rain = 0
KAI1 141537Z 10003KT 24/16 A3026 RMK A01 T02430163  RH  061%=      5-min Rain = 0
KAI1 141538Z 10003KT 24/17 A3026 RMK A01 T02440168  RH  062%=      5-min Rain = 0
KAI1 141539Z 12003KT 25/17 A3025 RMK A01 T02460166  RH  061%=      5-min Rain = 0
KAI1 141540Z 14002KT 25/17 A3025 RMK A01 T02480167  RH  061%=      5-min Rain = 0
KAI1 141541Z 09001KT 25/17 A3026 RMK A01 T02510166  RH  059%=      5-min Rain = 0
KAI1 141542Z 09002KT 25/17 A3026 RMK A01 T02520167  RH  059%=      5-min Rain = 0
KAI1 141543Z 11003KT 25/17 A3026 RMK A01 T02530166  RH  059%=      5-min Rain = 0
KAI1 141544Z 12003KT 25/17 A3026 RMK A01 T02500167  RH  060%=      5-min Rain = 0
KAI1 141545Z 13003KT 25/17 A3026 RMK A01 T02490166  RH  060%=      5-min Rain = 0
KAI1 141546Z 13003KT 25/16 A3026 RMK A01 T02480164  RH  060%=      5-min Rain = 0
KAI1 141547Z 13003KT 25/17 A3026 RMK A01 T02480170  RH  062%=      5-min Rain = 0
KAI1 141548Z 12004KT 25/17 A3026 RMK A01 T02490170  RH  062%=      5-min Rain = 0
KAI1 141549Z 10004KT 25/17 A3026 RMK A01 T02490165  RH  060%=      5-min Rain = 0
KAI1 141550Z 10003KT 25/17 A3026 RMK A01 T02480167  RH  061%=      5-min Rain = 0
KAI1 141551Z 10002KT 25/16 A3026 RMK A01 T02460164  RH  060%=      5-min Rain = 0
KAI1 141552Z 12003KT 25/17 A3026 RMK A01 T02460168  RH  062%=      5-min Rain = 0
KAI1 141553Z 11003KT 25/17 A3026 RMK A01 T02470173  RH  063%=      5-min Rain = 0
KAI1 141554Z 12004KT 25/17 A3026 RMK A01 T02500170  RH  061%=      5-min Rain = 0
KAI1 141555Z 13004KT 25/17 A3025 RMK A01 T02500168  RH  060%=      5-min Rain = 0
KAI1 141556Z 13004KT 25/17 A3025 RMK A01 T02510170  RH  061%=      5-min Rain = 0
KAI1 141557Z 13003KT 25/17 A3025 RMK A01 T02510168  RH  060%=      5-min Rain = 0
KAI1 141558Z 14005KT 25/17 A3025 RMK A01 T02510173  RH  062%=      5-min Rain = 0
KAI1 141559Z 11005KT 25/17 A3025 RMK A01 T02510171  RH  061%=      5-min Rain = 0
KAI1 141600Z 12003KT 25/17 A3025 RMK A01 T02500170  RH  061%=      5-min Rain = 0
KAI1 141601Z 12003KT 25/17 A3025 RMK A01 T02490172  RH  062%=      5-min Rain = 0
KAI1 141602Z 11003KT 25/17 A3025 RMK A01 T02490167  RH  060%=      5-min Rain = 0
KAI1 141603Z 12003KT 25/17 A3025 RMK A01 T02490168  RH  061%=      5-min Rain = 0
KAI1 141604Z 11004KT 25/17 A3025 RMK A01 T02490170  RH  061%=      5-min Rain = 0
KAI1 141605Z 10004KT 25/17 A3025 RMK A01 T02500173  RH  062%=      5-min Rain = 0
KAI1 141606Z 10004KT 25/17 A3025 RMK A01 T02510174  RH  062%=      5-min Rain = 0
KAI1 141607Z 12003KT 25/17 A3025 RMK A01 T02520171  RH  061%=      5-min Rain = 0
KAI1 141608Z 12004KT 25/18 A3025 RMK A01 T02530175  RH  062%=      5-min Rain = 0
KAI1 141609Z 11004KT 25/17 A3025 RMK A01 T02540174  RH  061%=      5-min Rain = 0
KAI1 141610Z 11003KT 25/17 A3025 RMK A01 T02540173  RH  061%=      5-min Rain = 0
KAI1 141611Z 12003KT 25/17 A3025 RMK A01 T02540173  RH  061%=      5-min Rain = 0
KAI1 141612Z 10005KT 25/17 A3025 RMK A01 T02540173  RH  061%=      5-min Rain = 0
KAI1 141613Z 10004KT 25/18 A3024 RMK A01 T02530176  RH  062%=      5-min Rain = 0
KAI1 141614Z 11005KT 25/17 A3024 RMK A01 T02520173  RH  062%=      5-min Rain = 0
KAI1 141615Z 12006KT 25/17 A3024 RMK A01 T02510174  RH  062%=      5-min Rain = 0
KAI1 141616Z 11006KT 25/17 A3024 RMK A01 T02510174  RH  062%=      5-min Rain = 0
KAI1 141617Z 10007KT 25/17 A3024 RMK A01 T02500172  RH  062%=      5-min Rain = 0
KAI1 141618Z 11004KT 25/17 A3024 RMK A01 T02500172  RH  062%=      5-min Rain = 0
KAI1 141619Z 10006KT 25/18 A3024 RMK A01 T02500176  RH  063%=      5-min Rain = 0
KAI1 141620Z 10007KT 25/17 A3024 RMK A01 T02510173  RH  062%=      5-min Rain = 0
KAI1 141621Z 10006KT 25/18 A3024 RMK A01 T02520179  RH  064%=      5-min Rain = 0
KAI1 141622Z 11006KT 25/18 A3024 RMK A01 T02530177  RH  062%=      5-min Rain = 0
KAI1 141623Z 11005KT 25/18 A3024 RMK A01 T02540176  RH  062%=      5-min Rain = 0
KAI1 141624Z 11008KT 26/18 A3024 RMK A01 T02550178  RH  062%=      5-min Rain = 0
KAI1 141625Z 11007KT 26/18 A3024 RMK A01 T02550176  RH  062%=      5-min Rain = 0
KAI1 141626Z 12004KT 26/18 A3024 RMK A01 T02550177  RH  062%=      5-min Rain = 0
KAI1 141627Z 12005KT 26/18 A3024 RMK A01 T02550178  RH  062%=      5-min Rain = 0
KAI1 141628Z 12004KT 26/18 A3024 RMK A01 T02560176  RH  062%=      5-min Rain = 0
KAI1 141629Z 12005KT 26/18 A3024 RMK A01 T02570175  RH  060%=      5-min Rain = 0
KAI1 141630Z 13006KT 26/18 A3024 RMK A01 T02570175  RH  061%=      5-min Rain = 0
KAI1 141631Z 11007KT 26/18 A3024 RMK A01 T02570177  RH  061%=      5-min Rain = 0
KAI1 141632Z 11006KT 26/18 A3024 RMK A01 T02580178  RH  061%=      5-min Rain = 0
KAI1 141633Z 12006KT 26/18 A3023 RMK A01 T02600177  RH  060%=      5-min Rain = 0
KAI1 141634Z 12006KT 26/18 A3023 RMK A01 T02610179  RH  060%=      5-min Rain = 0
KAI1 141635Z 13007KT 26/18 A3023 RMK A01 T02620176  RH  059%=      5-min Rain = 0
KAI1 141636Z 10005KT 26/18 A3023 RMK A01 T02630177  RH  059%=      5-min Rain = 0
KAI1 141637Z 09007KT 26/18 A3023 RMK A01 T02640176  RH  058%=      5-min Rain = 0
KAI1 141638Z 09008KT 26/18 A3023 RMK A01 T02640175  RH  058%=      5-min Rain = 0
KAI1 141639Z 11006KT 26/18 A3023 RMK A01 T02630177  RH  059%=      5-min Rain = 0
KAI1 141640Z 12004KT 26/18 A3023 RMK A01 T02630178  RH  060%=      5-min Rain = 0
KAI1 141641Z 10003KT 26/18 A3023 RMK A01 T02630176  RH  059%=      5-min Rain = 0
KAI1 141642Z 12005KT 26/18 A3023 RMK A01 T02640176  RH  059%=      5-min Rain = 0
KAI1 141643Z 12005KT 26/18 A3023 RMK A01 T02630178  RH  059%=      5-min Rain = 0
KAI1 141644Z 11007KT 26/18 A3023 RMK A01 T02630180  RH  060%=      5-min Rain = 0
KAI1 141645Z 11006KT 26/18 A3023 RMK A01 T02630179  RH  060%=      5-min Rain = 0
KAI1 141646Z 10006KT 26/18 A3023 RMK A01 T02620178  RH  060%=      5-min Rain = 0
KAI1 141647Z 10006KT 26/18 A3023 RMK A01 T02620176  RH  059%=      5-min Rain = 0
KAI1 141648Z 10004KT 26/18 A3023 RMK A01 T02620177  RH  059%=      5-min Rain = 0
KAI1 141649Z 11004KT 26/18 A3023 RMK A01 T02640178  RH  059%=      5-min Rain = 0
KAI1 141650Z 10005KT 27/17 A3023 RMK A01 T02650174  RH  058%=      5-min Rain = 0
KAI1 141651Z 08006KT 26/17 A3023 RMK A01 T02640174  RH  058%=      5-min Rain = 0
KAI1 141652Z 08007KT 26/17 A3023 RMK A01 T02640172  RH  057%=      5-min Rain = 0
KAI1 141653Z 10005KT 26/17 A3023 RMK A01 T02640172  RH  057%=      5-min Rain = 0
KAI1 141654Z 09007KT 26/18 A3023 RMK A01 T02640177  RH  059%=      5-min Rain = 0
KAI1 141655Z 06006KT 27/18 A3023 RMK A01 T02660176  RH  058%=      5-min Rain = 0
KAI1 141656Z 06005KT 27/17 A3023 RMK A01 T02690172  RH  055%=      5-min Rain = 0
KAI1 141657Z 07006KT 27/17 A3023 RMK A01 T02700174  RH  056%=      5-min Rain = 0
KAI1 141658Z 07005KT 27/18 A3023 RMK A01 T02720175  RH  055%=      5-min Rain = 0
KAI1 141659Z 09004KT 27/18 A3023 RMK A01 T02730177  RH  056%=      5-min Rain = 0
KAI1 141700Z 09005KT 28/18 A3023 RMK A01 T02750181  RH  057%=      5-min Rain = 0
KAI1 141701Z 10005KT 28/18 A3023 RMK A01 T02760182  RH  057%=      5-min Rain = 0
KAI1 141702Z 11004KT 28/18 A3023 RMK A01 T02770178  RH  055%=      5-min Rain = 0
KAI1 141703Z 11004KT 28/18 A3023 RMK A01 T02780175  RH  054%=      5-min Rain = 0
KAI1 141704Z 13003KT 28/17 A3023 RMK A01 T02780174  RH  053%=      5-min Rain = 0
KAI1 141705Z 13003KT 28/17 A3023 RMK A01 T02800174  RH  052%=      5-min Rain = 0
KAI1 141706Z 11003KT 28/17 A3023 RMK A01 T02830172  RH  051%=      5-min Rain = 0
KAI1 141707Z 09002KT 28/17 A3023 RMK A01 T02840174  RH  051%=      5-min Rain = 0
KAI1 141708Z 10006KT 29/18 A3023 RMK A01 T02860177  RH  052%=      5-min Rain = 0
KAI1 141709Z 10006KT 29/17 A3023 RMK A01 T02860171  RH  050%=      5-min Rain = 0
KAI1 141710Z 08008G13KT 29/17 A3023 RMK A01 T02850171  RH  050%=      5-min Rain = 0
KAI1 141711Z 10005KT 29/17 A3023 RMK A01 T02850173  RH  051%=      5-min Rain = 0
KAI1 141712Z 08005KT 29/17 A3023 RMK A01 T02850174  RH  051%=      5-min Rain = 0
KAI1 141713Z 08006KT 28/17 A3023 RMK A01 T02840171  RH  050%=      5-min Rain = 0
KAI1 141714Z 07004KT 28/16 A3023 RMK A01 T02840161  RH  047%=      5-min Rain = 0
KAI1 141715Z 08005KT 28/17 A3023 RMK A01 T02840168  RH  049%=      5-min Rain = 0
KAI1 141716Z 09006KT 29/16 A3023 RMK A01 T02860157  RH  046%=      5-min Rain = 0
KAI1 141717Z 09005KT 29/16 A3023 RMK A01 T02870159  RH  046%=      5-min Rain = 0
KAI1 141718Z 05008KT 29/16 A3023 RMK A01 T02870156  RH  045%=      5-min Rain = 0
KAI1 141719Z 03007KT 29/15 A3022 RMK A01 T02880150  RH  043%=      5-min Rain = 0
KAI1 141720Z 03006KT 29/15 A3022 RMK A01 T02890150  RH  043%=      5-min Rain = 0
KAI1 141721Z 07006KT 29/15 A3022 RMK A01 T02890152  RH  043%=      5-min Rain = 0
KAI1 141722Z 09007KT 29/16 A3022 RMK A01 T02890158  RH  045%=      5-min Rain = 0
KAI1 141723Z 06006KT 29/16 A3022 RMK A01 T02900160  RH  045%=      5-min Rain = 0
KAI1 141724Z 06009KT 29/16 A3022 RMK A01 T02910160  RH  045%=      5-min Rain = 0
KAI1 141725Z 05009KT 29/15 A3022 RMK A01 T02940145  RH  040%=      5-min Rain = 0
KAI1 141726Z 08008KT 29/15 A3022 RMK A01 T02930148  RH  041%=      5-min Rain = 0
KAI1 141727Z 05009KT 29/15 A3022 RMK A01 T02910149  RH  042%=      5-min Rain = 0
KAI1 141728Z 05007KT 29/15 A3022 RMK A01 T02900151  RH  043%=      5-min Rain = 0
KAI1 141729Z 04008KT 29/15 A3022 RMK A01 T02910153  RH  043%=      5-min Rain = 0
KAI1 141730Z 03012KT 29/16 A3023 RMK A01 T02920157  RH  044%=      5-min Rain = 0
KAI1 141731Z 04012KT 29/15 A3023 RMK A01 T02910154  RH  043%=      5-min Rain = 0
KAI1 141732Z 04009KT 29/15 A3023 RMK A01 T02910153  RH  043%=      5-min Rain = 0
KAI1 141733Z 05010KT 29/16 A3023 RMK A01 T02910158  RH  045%=      5-min Rain = 0
KAI1 141734Z 05011KT 29/16 A3023 RMK A01 T02900160  RH  045%=      5-min Rain = 0
KAI1 141735Z 06011KT 29/16 A3023 RMK A01 T02900157  RH  044%=      5-min Rain = 0
KAI1 141736Z 05010KT 29/16 A3022 RMK A01 T02890157  RH  045%=      5-min Rain = 0
KAI1 141737Z 04012KT 29/16 A3022 RMK A01 T02880160  RH  046%=      5-min Rain = 0
KAI1 141738Z 03011KT 29/16 A3022 RMK A01 T02870163  RH  047%=      5-min Rain = 0
KAI1 141739Z 04011KT 29/16 A3022 RMK A01 T02850163  RH  047%=      5-min Rain = 0
KAI1 141740Z 04009KT 28/16 A3022 RMK A01 T02840159  RH  047%=      5-min Rain = 0
KAI1 141741Z 04011KT 28/16 A3022 RMK A01 T02840161  RH  047%=      5-min Rain = 0
KAI1 141742Z 04014KT 29/15 A3023 RMK A01 T02850154  RH  045%=      5-min Rain = 0
KAI1 141743Z 05013KT 29/15 A3023 RMK A01 T02850153  RH  045%=      5-min Rain = 0
KAI1 141744Z 05014KT 29/16 A3023 RMK A01 T02860155  RH  045%=      5-min Rain = 0
KAI1 141745Z 05013KT 29/15 A3023 RMK A01 T02870153  RH  044%=      5-min Rain = 0
KAI1 141746Z 04012KT 29/16 A3022 RMK A01 T02860157  RH  045%=      5-min Rain = 0
KAI1 141747Z 04011KT 29/16 A3022 RMK A01 T02870155  RH  045%=      5-min Rain = 0
KAI1 141748Z 04010KT 29/16 A3022 RMK A01 T02880155  RH  044%=      5-min Rain = 0
KAI1 141749Z 04009KT 29/16 A3022 RMK A01 T02890161  RH  046%=      5-min Rain = 0
KAI1 141750Z 04010KT 29/16 A3023 RMK A01 T02910158  RH  045%=      5-min Rain = 0
KAI1 141751Z 03009KT 29/16 A3023 RMK A01 T02910158  RH  044%=      5-min Rain = 0
KAI1 141752Z 05008KT 29/16 A3023 RMK A01 T02920156  RH  044%=      5-min Rain = 0
KAI1 141753Z 05005KT 29/16 A3023 RMK A01 T02930157  RH  044%=      5-min Rain = 0
KAI1 141754Z 03009KT 30/16 A3023 RMK A01 T02950157  RH  043%=      5-min Rain = 0
KAI1 141755Z 03008KT 29/16 A3023 RMK A01 T02930156  RH  043%=      5-min Rain = 0
KAI1 141756Z 05010KT 29/16 A3023 RMK A01 T02920158  RH  044%=      5-min Rain = 0
KAI1 141757Z 06009KT 29/16 A3023 RMK A01 T02930155  RH  043%=      5-min Rain = 0
KAI1 141758Z 06008KT 29/16 A3023 RMK A01 T02930156  RH  043%=      5-min Rain = 0
KAI1 141759Z 04007KT 29/15 A3023 RMK A01 T02920151  RH  042%=      5-min Rain = 0
KAI1 141800Z 04006KT 29/15 A3023 RMK A01 T02920149  RH  042%=      5-min Rain = 0
KAI1 141801Z 04006KT 29/15 A3023 RMK A01 T02910152  RH  043%=      5-min Rain = 0
KAI1 141802Z 02007KT 29/16 A3023 RMK A01 T02920158  RH  044%=      5-min Rain = 0
KAI1 141803Z 04008KT 30/16 A3023 RMK A01 T02950163  RH  045%=      5-min Rain = 0
KAI1 141804Z 07009KT 30/15 A3023 RMK A01 T02980154  RH  042%=      5-min Rain = 0
KAI1 141805Z 08007KT 30/16 A3023 RMK A01 T02970155  RH  042%=      5-min Rain = 0
KAI1 141806Z 06006KT 30/15 A3023 RMK A01 T02960153  RH  042%=      5-min Rain = 0
KAI1 141807Z 06009KT 30/16 A3023 RMK A01 T02960155  RH  042%=      5-min Rain = 0
KAI1 141808Z 05007G13KT 30/16 A3023 RMK A01 T02980158  RH  043%=      5-min Rain = 0
KAI1 141809Z 05008KT 30/16 A3023 RMK A01 T03000157  RH  042%=      5-min Rain = 0
KAI1 141810Z 06006KT 30/16 A3023 RMK A01 T03000156  RH  042%=      5-min Rain = 0
KAI1 141811Z 06007KT 30/15 A3023 RMK A01 T03000151  RH  040%=      5-min Rain = 0
KAI1 141812Z 04006KT 30/16 A3023 RMK A01 T03020157  RH  042%=      5-min Rain = 0
KAI1 141813Z 03009KT 30/16 A3023 RMK A01 T03030157  RH  041%=      5-min Rain = 0
KAI1 141814Z 03010KT 30/16 A3023 RMK A01 T03010157  RH  042%=      5-min Rain = 0
KAI1 141815Z 03008KT 30/15 A3022 RMK A01 T02990149  RH  040%=      5-min Rain = 0
KAI1 141816Z 04010KT 30/15 A3022 RMK A01 T02970152  RH  041%=      5-min Rain = 0
KAI1 141817Z 05006KT 30/15 A3022 RMK A01 T02950151  RH  042%=      5-min Rain = 0
KAI1 141818Z 04005KT 29/15 A3022 RMK A01 T02940151  RH  042%=      5-min Rain = 0
KAI1 141819Z 06007KT 29/15 A3022 RMK A01 T02940154  RH  043%=      5-min Rain = 0
KAI1 141820Z 07005KT 29/15 A3022 RMK A01 T02930150  RH  042%=      5-min Rain = 0
KAI1 141821Z 07005KT 29/15 A3022 RMK A01 T02920151  RH  042%=      5-min Rain = 0
KAI1 141822Z 04004KT 29/15 A3022 RMK A01 T02920151  RH  042%=      5-min Rain = 0
KAI1 141823Z 01004KT 29/15 A3022 RMK A01 T02930151  RH  042%=      5-min Rain = 0
KAI1 141824Z 01004KT 29/15 A3022 RMK A01 T02930151  RH  042%=      5-min Rain = 0
KAI1 141825Z 03004KT 29/15 A3022 RMK A01 T02930153  RH  043%=      5-min Rain = 0
KAI1 141826Z 02005KT 29/16 A3022 RMK A01 T02930155  RH  043%=      5-min Rain = 0
KAI1 141827Z 02008KT 29/16 A3022 RMK A01 T02940155  RH  043%=      5-min Rain = 0
KAI1 141828Z 03008KT 30/15 A3022 RMK A01 T02960151  RH  041%=      5-min Rain = 0
KAI1 141829Z 07007KT 30/15 A3022 RMK A01 T02980148  RH  040%=      5-min Rain = 0
KAI1 141830Z 07007KT 30/15 A3022 RMK A01 T03000148  RH  039%=      5-min Rain = 0
KAI1 141831Z 06008KT 30/15 A3022 RMK A01 T03020146  RH  039%=      5-min Rain = 0
KAI1 141832Z 05009KT 30/15 A3022 RMK A01 T03020145  RH  038%=      5-min Rain = 0
KAI1 141833Z 05010KT 30/15 A3022 RMK A01 T03030151  RH  040%=      5-min Rain = 0
KAI1 141834Z 05009KT 31/14 A3022 RMK A01 T03060144  RH  037%=      5-min Rain = 0
KAI1 141835Z 04007KT 30/14 A3022 RMK A01 T03020140  RH  037%=      5-min Rain = 0
KAI1 141836Z 03007KT 30/15 A3022 RMK A01 T03000148  RH  040%=      5-min Rain = 0
KAI1 141837Z 02009KT 30/15 A3022 RMK A01 T03010153  RH  041%=      5-min Rain = 0
KAI1 141838Z 01008KT 30/15 A3022 RMK A01 T03020149  RH  039%=      5-min Rain = 0
KAI1 141839Z 03010KT 30/15 A3022 RMK A01 T03040151  RH  040%=      5-min Rain = 0
KAI1 141840Z 03008KT 31/15 A3022 RMK A01 T03060148  RH  038%=      5-min Rain = 0
KAI1 141841Z 02007KT 31/15 A3022 RMK A01 T03060150  RH  039%=      5-min Rain = 0
KAI1 141842Z 03008KT 31/15 A3022 RMK A01 T03050149  RH  039%=      5-min Rain = 0
KAI1 141843Z 04005KT 30/14 A3022 RMK A01 T03030143  RH  038%=      5-min Rain = 0
KAI1 141844Z 04007KT 30/15 A3022 RMK A01 T03010149  RH  040%=      5-min Rain = 0
KAI1 141845Z 03009KT 30/15 A3022 RMK A01 T03020154  RH  041%=      5-min Rain = 0
KAI1 141846Z 02009KT 30/16 A3022 RMK A01 T03040156  RH  041%=      5-min Rain = 0
KAI1 141847Z 01008KT 31/15 A3022 RMK A01 T03070151  RH  039%=      5-min Rain = 0
KAI1 141848Z 03012KT 31/15 A3022 RMK A01 T03070151  RH  039%=      5-min Rain = 0
KAI1 141849Z 03011KT 31/15 A3023 RMK A01 T03060154  RH  040%=      5-min Rain = 0
KAI1 141850Z 04010KT 30/15 A3022 RMK A01 T03040152  RH  040%=      5-min Rain = 0
KAI1 141851Z 03009KT 30/15 A3022 RMK A01 T03040152  RH  040%=      5-min Rain = 0
KAI1 141852Z 04008KT 30/15 A3022 RMK A01 T03030150  RH  039%=      5-min Rain = 0
KAI1 141853Z 03008KT 30/15 A3022 RMK A01 T03030149  RH  039%=      5-min Rain = 0
KAI1 141854Z 00007KT 30/14 A3022 RMK A01 T03040144  RH  038%=      5-min Rain = 0
KAI1 141855Z 00006KT 30/14 A3022 RMK A01 T03040141  RH  037%=      5-min Rain = 0
KAI1 141856Z 02004KT 30/14 A3022 RMK A01 T03020142  RH  038%=      5-min Rain = 0
KAI1 141857Z 00003KT 30/14 A3022 RMK A01 T03030142  RH  038%=      5-min Rain = 0
KAI1 141858Z 03007KT 30/15 A3022 RMK A01 T03040151  RH  039%=      5-min Rain = 0
KAI1 141859Z 02007KT 31/15 A3022 RMK A01 T03050151  RH  039%=      5-min Rain = 0
KAI1 141900Z 01008KT 31/15 A3022 RMK A01 T03080153  RH  039%=      5-min Rain = 0
KAI1 141901Z 03008KT 31/15 A3022 RMK A01 T03090148  RH  038%=      5-min Rain = 0
KAI1 141902Z 03006KT 31/15 A3022 RMK A01 T03060148  RH  038%=      5-min Rain = 0
KAI1 141903Z 03007KT 31/15 A3022 RMK A01 T03060150  RH  039%=      5-min Rain = 0
KAI1 141904Z 02008KT 31/15 A3022 RMK A01 T03070151  RH  039%=      5-min Rain = 0
KAI1 141905Z 03009KT 31/15 A3022 RMK A01 T03070147  RH  038%=      5-min Rain = 0
KAI1 141906Z 03005KT 31/14 A3022 RMK A01 T03060141  RH  036%=      5-min Rain = 0
KAI1 141907Z 01002KT 30/14 A3022 RMK A01 T03040140  RH  037%=      5-min Rain = 0
KAI1 141908Z 34001KT 30/14 A3022 RMK A01 T03040140  RH  037%=      5-min Rain = 0
KAI1 141909Z 05003KT 31/15 A3022 RMK A01 T03060146  RH  038%=      5-min Rain = 0
KAI1 141910Z 04006KT 31/15 A3022 RMK A01 T03090150  RH  038%=      5-min Rain = 0
KAI1 141911Z 01010KT 31/15 A3022 RMK A01 T03090153  RH  039%=      5-min Rain = 0
KAI1 141912Z 01011KT 31/15 A3022 RMK A01 T03090150  RH  038%=      5-min Rain = 0
KAI1 141913Z 02009KT 31/15 A3022 RMK A01 T03100152  RH  038%=      5-min Rain = 0
KAI1 141914Z 02008KT 31/15 A3022 RMK A01 T03100147  RH  037%=      5-min Rain = 0
KAI1 141915Z 02009KT 31/15 A3022 RMK A01 T03090152  RH  039%=      5-min Rain = 0
KAI1 141916Z 03009KT 31/15 A3022 RMK A01 T03090152  RH  039%=      5-min Rain = 0
KAI1 141917Z 04007KT 31/15 A3022 RMK A01 T03100146  RH  037%=      5-min Rain = 0
KAI1 141918Z 04007KT 31/14 A3022 RMK A01 T03100144  RH  036%=      5-min Rain = 0
KAI1 141919Z 05004KT 31/14 A3022 RMK A01 T03090143  RH  036%=      5-min Rain = 0
KAI1 141920Z 06003KT 31/14 A3021 RMK A01 T03080140  RH  036%=      5-min Rain = 0
KAI1 141921Z 07004KT 31/14 A3021 RMK A01 T03060142  RH  037%=      5-min Rain = 0
KAI1 141922Z 07005KT 31/14 A3021 RMK A01 T03060142  RH  037%=      5-min Rain = 0
KAI1 141923Z 05005KT 31/14 A3021 RMK A01 T03050144  RH  038%=      5-min Rain = 0
KAI1 141924Z 05008KT 30/14 A3021 RMK A01 T03040143  RH  037%=      5-min Rain = 0
KAI1 141925Z 03005KT 31/14 A3021 RMK A01 T03050139  RH  036%=      5-min Rain = 0
KAI1 141926Z 03006KT 31/14 A3021 RMK A01 T03060143  RH  037%=      5-min Rain = 0
KAI1 141927Z 03007KT 31/14 A3021 RMK A01 T03080143  RH  037%=      5-min Rain = 0
KAI1 141928Z 02007KT 31/15 A3021 RMK A01 T03080149  RH  038%=      5-min Rain = 0
KAI1 141929Z 03007KT 31/15 A3021 RMK A01 T03090145  RH  037%=      5-min Rain = 0
KAI1 141930Z 03006KT 31/14 A3021 RMK A01 T03090143  RH  036%=      5-min Rain = 0
KAI1 141931Z 04005KT 31/14 A302 RMK A01 T03090139  RH  036%=      5-min Rain = 0
KAI1 141932Z 03006KT 31/14 A302 RMK A01 T03070141  RH  036%=      5-min Rain = 0
KAI1 141933Z 02006KT 31/14 A302 RMK A01 T03070137  RH  035%=      5-min Rain = 0
KAI1 141934Z 02005KT 31/15 A302 RMK A01 T03070145  RH  037%=      5-min Rain = 0
KAI1 141935Z 36004KT 31/14 A302 RMK A01 T03080142  RH  036%=      5-min Rain = 0
KAI1 141936Z 03004KT 31/14 A302 RMK A01 T03090139  RH  036%=      5-min Rain = 0
KAI1 141937Z 00002KT 31/14 A302 RMK A01 T03090140  RH  036%=      5-min Rain = 0
KAI1 141938Z 02003KT 31/14 A302 RMK A01 T03100144  RH  037%=      5-min Rain = 0
KAI1 141939Z 05004KT 31/14 A302 RMK A01 T03120143  RH  036%=      5-min Rain = 0
KAI1 141940Z 36004KT 31/14 A302 RMK A01 T03110139  RH  035%=      5-min Rain = 0
KAI1 141941Z 35005KT 31/14 A302 RMK A01 T03110142  RH  036%=      5-min Rain = 0
KAI1 141942Z 34006KT 31/14 A3019 RMK A01 T03130143  RH  036%=      5-min Rain = 0
KAI1 141943Z 02005KT 32/15 A3019 RMK A01 T03150146  RH  036%=      5-min Rain = 0
KAI1 141944Z 02006KT 32/14 A3019 RMK A01 T03150142  RH  035%=      5-min Rain = 0
KAI1 141945Z 03009KT 31/15 A3019 RMK A01 T03120150  RH  038%=      5-min Rain = 0
KAI1 141946Z 09009KT 31/15 A3019 RMK A01 T03130151  RH  037%=      5-min Rain = 0
KAI1 141947Z 09008KT 31/15 A3019 RMK A01 T03130146  RH  036%=      5-min Rain = 0
KAI1 141948Z 10006KT 31/14 A3019 RMK A01 T03120140  RH  035%=      5-min Rain = 0
KAI1 141949Z 12004KT 31/14 A3019 RMK A01 T03100135  RH  035%=      5-min Rain = 0
KAI1 141950Z 09003KT 31/13 A3019 RMK A01 T03100132  RH  034%=      5-min Rain = 0
KAI1 141951Z 12003KT 31/14 A3019 RMK A01 T03100138  RH  035%=      5-min Rain = 0
KAI1 141952Z 12003KT 31/14 A3019 RMK A01 T03110138  RH  035%=      5-min Rain = 0
KAI1 141953Z 16002KT 31/13 A3019 RMK A01 T03130132  RH  033%=      5-min Rain = 0
KAI1 141954Z 17002KT 31/13 A3018 RMK A01 T03130132  RH  033%=      5-min Rain = 0
KAI1 141955Z 14004KT 31/14 A3018 RMK A01 T03130137  RH  034%=      5-min Rain = 0
KAI1 141956Z 09004KT 32/14 A3018 RMK A01 T03150141  RH  035%=      5-min Rain = 0
KAI1 141957Z 07006KT 32/15 A3018 RMK A01 T03150150  RH  037%=      5-min Rain = 0
KAI1 141958Z 08007KT 32/14 A3018 RMK A01 T03150143  RH  035%=      5-min Rain = 0
KAI1 141959Z 07005KT 31/14 A3018 RMK A01 T03130140  RH  035%=      5-min Rain = 0
KAI1 142000Z 09005KT 31/14 A3018 RMK A01 T03130137  RH  034%=      5-min Rain = 0
KAI1 142001Z 09003KT 31/14 A3018 RMK A01 T03120139  RH  035%=      5-min Rain = 0
KAI1 142002Z 10002KT 31/14 A3018 RMK A01 T03120137  RH  034%=      5-min Rain = 0
KAI1 142003Z 06001KT 31/14 A3018 RMK A01 T03130137  RH  034%=      5-min Rain = 0
KAI1 142004Z 06002KT 32/14 A3017 RMK A01 T03160139  RH  034%=      5-min Rain = 0
KAI1 142005Z 08003KT 32/14 A3017 RMK A01 T03160139  RH  034%=      5-min Rain = 0
KAI1 142006Z 10003KT 32/14 A3017 RMK A01 T03160138  RH  034%=      5-min Rain = 0
KAI1 142007Z 11003KT 32/14 A3017 RMK A01 T03150135  RH  033%=      5-min Rain = 0
KAI1 142008Z 08004KT 31/14 A3017 RMK A01 T03130136  RH  034%=      5-min Rain = 0
KAI1 142009Z 06005KT 31/15 A3017 RMK A01 T03140152  RH  038%=      5-min Rain = 0
KAI1 142010Z 04004KT 32/15 A3017 RMK A01 T03160148  RH  036%=      5-min Rain = 0
KAI1 142011Z 04004KT 32/14 A3017 RMK A01 T03150139  RH  034%=      5-min Rain = 0
KAI1 142012Z 04002KT 31/14 A3017 RMK A01 T03120135  RH  034%=      5-min Rain = 0
KAI1 142013Z 07001KT 31/14 A3017 RMK A01 T03110136  RH  034%=      5-min Rain = 0
KAI1 142014Z 10003KT 31/14 A3016 RMK A01 T03120138  RH  035%=      5-min Rain = 0
KAI1 142015Z 12007KT 31/15 A3016 RMK A01 T03140148  RH  036%=      5-min Rain = 0
KAI1 142016Z 13005KT 32/14 A3016 RMK A01 T03160140  RH  034%=      5-min Rain = 0
KAI1 142017Z 12002KT 32/14 A3016 RMK A01 T03170143  RH  035%=      5-min Rain = 0
KAI1 142018Z 12001KT 32/14 A3016 RMK A01 T03180138  RH  034%=      5-min Rain = 0
KAI1 142019Z 12008KT 32/14 A3016 RMK A01 T03190143  RH  035%=      5-min Rain = 0
KAI1 142020Z 15004KT 32/15 A3016 RMK A01 T03190149  RH  036%=      5-min Rain = 0
KAI1 142021Z 12008KT 32/15 A3016 RMK A01 T03210149  RH  035%=      5-min Rain = 0
KAI1 142022Z 10006KT 32/15 A3016 RMK A01 T03210150  RH  036%=      5-min Rain = 0
KAI1 142023Z 12007KT 32/16 A3016 RMK A01 T03180156  RH  038%=      5-min Rain = 0
KAI1 142024Z 13006KT 32/15 A3016 RMK A01 T03180151  RH  036%=      5-min Rain = 0
KAI1 142025Z 11004KT 32/15 A3016 RMK A01 T03180145  RH  035%=      5-min Rain = 0
KAI1 142026Z 09004KT 32/15 A3016 RMK A01 T03180146  RH  035%=      5-min Rain = 0
KAI1 142027Z 10006KT 32/14 A3016 RMK A01 T03180140  RH  034%=      5-min Rain = 0
KAI1 142028Z 11004KT 32/13 A3016 RMK A01 T03160134  RH  033%=      5-min Rain = 0
KAI1 142029Z 12004KT 31/14 A3016 RMK A01 T03140141  RH  035%=      5-min Rain = 0
KAI1 142030Z 13006KT 32/14 A3016 RMK A01 T03150140  RH  035%=      5-min Rain = 0
KAI1 142031Z 12007KT 32/15 A3016 RMK A01 T03180149  RH  036%=      5-min Rain = 0
KAI1 142032Z 11006KT 32/15 A3016 RMK A01 T03200146  RH  035%=      5-min Rain = 0
KAI1 142033Z 10006KT 32/14 A3016 RMK A01 T03210140  RH  033%=      5-min Rain = 0
KAI1 142034Z 10003KT 32/14 A3016 RMK A01 T03190140  RH  034%=      5-min Rain = 0
KAI1 142035Z 10005KT 32/14 A3016 RMK A01 T03180143  RH  035%=      5-min Rain = 0
KAI1 142036Z 10003KT 32/14 A3015 RMK A01 T03180137  RH  033%=      5-min Rain = 0
KAI1 142037Z 09004KT 32/13 A3015 RMK A01 T03190134  RH  033%=      5-min Rain = 0
KAI1 142038Z 05001KT 32/13 A3015 RMK A01 T03180132  RH  032%=      5-min Rain = 0
KAI1 142039Z 12004KT 32/14 A3015 RMK A01 T03180139  RH  034%=      5-min Rain = 0
KAI1 142040Z 11005KT 32/14 A3015 RMK A01 T03200144  RH  034%=      5-min Rain = 0
KAI1 142041Z 09005KT 32/15 A3015 RMK A01 T03210147  RH  035%=      5-min Rain = 0
KAI1 142042Z 10003KT 32/14 A3015 RMK A01 T03220140  RH  033%=      5-min Rain = 0
KAI1 142043Z 12001KT 32/14 A3015 RMK A01 T03230138  RH  033%=      5-min Rain = 0
KAI1 142044Z 16000KT 32/13 A3015 RMK A01 T03240132  RH  031%=      5-min Rain = 0
KAI1 142045Z 14001KT 33/14 A3015 RMK A01 T03250136  RH  032%=      5-min Rain = 0
KAI1 142046Z 12004KT 33/14 A3015 RMK A01 T03270138  RH  032%=      5-min Rain = 0
KAI1 142047Z 12004KT 33/15 A3015 RMK A01 T03260145  RH  034%=      5-min Rain = 0
KAI1 142048Z 10005KT 33/15 A3015 RMK A01 T03250149  RH  035%=      5-min Rain = 0
KAI1 142049Z 09005KT 33/14 A3015 RMK A01 T03250141  RH  033%=      5-min Rain = 0
KAI1 142050Z 07005KT 32/14 A3015 RMK A01 T03220141  RH  033%=      5-min Rain = 0
KAI1 142051Z 05005KT 32/14 A3014 RMK A01 T03200137  RH  033%=      5-min Rain = 0
KAI1 142052Z 11006KT 32/15 A3015 RMK A01 T03190146  RH  035%=      5-min Rain = 0
KAI1 142053Z 13005KT 32/14 A3015 RMK A01 T03200136  RH  033%=      5-min Rain = 0
KAI1 142054Z 12004KT 32/13 A3015 RMK A01 T03210133  RH  032%=      5-min Rain = 0
KAI1 142055Z 15001KT 32/13 A3015 RMK A01 T03200134  RH  032%=      5-min Rain = 0
KAI1 142056Z 20001KT 32/13 A3015 RMK A01 T03220132  RH  032%=      5-min Rain = 0
KAI1 142057Z 09000KT 33/14 A3015 RMK A01 T03250135  RH  031%=      5-min Rain = 0
KAI1 142058Z 13003KT 33/14 A3014 RMK A01 T03280136  RH  031%=      5-min Rain = 0
KAI1 142059Z 14002KT 33/14 A3014 RMK A01 T03280138  RH  032%=      5-min Rain = 0
KAI1 142100Z 09002KT 33/15 A3014 RMK A01 T03290145  RH  033%=      5-min Rain = 0
KAI1 142101Z 10002KT 33/13 A3014 RMK A01 T03290133  RH  031%=      5-min Rain = 0
KAI1 142102Z 14002KT 33/14 A3014 RMK A01 T03270136  RH  032%=      5-min Rain = 0
KAI1 142103Z 15003KT 33/13 A3014 RMK A01 T03270134  RH  031%=      5-min Rain = 0
KAI1 142104Z 18002KT 33/13 A3014 RMK A01 T03280131  RH  030%=      5-min Rain = 0
KAI1 142105Z 15002KT 33/14 A3014 RMK A01 T03280135  RH  031%=      5-min Rain = 0
KAI1 142106Z 11004KT 33/14 A3014 RMK A01 T03280143  RH  033%=      5-min Rain = 0
KAI1 142107Z 13008KT 33/15 A3014 RMK A01 T03280146  RH  033%=      5-min Rain = 0
KAI1 142108Z 12009KT 33/15 A3014 RMK A01 T03280147  RH  034%=      5-min Rain = 0
KAI1 142109Z 12006KT 33/15 A3014 RMK A01 T03280145  RH  033%=      5-min Rain = 0
KAI1 142110Z 11006KT 33/14 A3014 RMK A01 T03260144  RH  033%=      5-min Rain = 0
KAI1 142111Z 12006KT 32/14 A3014 RMK A01 T03240138  RH  033%=      5-min Rain = 0
KAI1 142112Z 11005KT 32/14 A3014 RMK A01 T03230140  RH  033%=      5-min Rain = 0
KAI1 142113Z 13003KT 32/14 A3014 RMK A01 T03220136  RH  032%=      5-min Rain = 0
KAI1 142114Z 16003KT 32/13 A3014 RMK A01 T03220134  RH  032%=      5-min Rain = 0
KAI1 142115Z 17001KT 32/13 A3014 RMK A01 T03230134  RH  032%=      5-min Rain = 0
KAI1 142116Z 16001KT 33/14 A3014 RMK A01 T03260137  RH  032%=      5-min Rain = 0
KAI1 142117Z 10003KT 33/14 A3014 RMK A01 T03280135  RH  031%=      5-min Rain = 0
KAI1 142118Z 07004KT 33/14 A3014 RMK A01 T03290140  RH  032%=      5-min Rain = 0
KAI1 142119Z 05004KT 33/14 A3014 RMK A01 T03280140  RH  032%=      5-min Rain = 0
KAI1 142120Z 05002KT 33/13 A3014 RMK A01 T03260131  RH  031%=      5-min Rain = 0
KAI1 142121Z 00002KT 32/13 A3014 RMK A01 T03240133  RH  031%=      5-min Rain = 0
KAI1 142122Z 26001KT 32/13 A3014 RMK A01 T03240131  RH  031%=      5-min Rain = 0
KAI1 142123Z 25001KT 33/13 A3014 RMK A01 T03260132  RH  031%=      5-min Rain = 0
KAI1 142124Z 26001KT 33/13 A3014 RMK A01 T03260131  RH  031%=      5-min Rain = 0
KAI1 142125Z 23002KT 33/13 A3014 RMK A01 T03250132  RH  031%=      5-min Rain = 0
KAI1 142126Z 18001KT 33/14 A3014 RMK A01 T03260136  RH  032%=      5-min Rain = 0
KAI1 142127Z 19002KT 33/14 A3014 RMK A01 T03280135  RH  031%=      5-min Rain = 0
KAI1 142128Z 19003KT 33/14 A3014 RMK A01 T03290141  RH  032%=      5-min Rain = 0
KAI1 142129Z 16003KT 33/14 A3014 RMK A01 T03300137  RH  031%=      5-min Rain = 0
KAI1 142130Z 16001KT 33/14 A3013 RMK A01 T03320136  RH  031%=      5-min Rain = 0
KAI1 142131Z 04000KT 33/13 A3013 RMK A01 T03320133  RH  030%=      5-min Rain = 0
KAI1 142132Z 04002KT 33/14 A3013 RMK A01 T03310136  RH  031%=      5-min Rain = 0
KAI1 142133Z 03003KT 33/14 A3013 RMK A01 T03310141  RH  032%=      5-min Rain = 0
KAI1 142134Z 01004KT 33/14 A3013 RMK A01 T03300140  RH  032%=      5-min Rain = 0
KAI1 142135Z 02004KT 33/14 A3013 RMK A01 T03280141  RH  032%=      5-min Rain = 0
KAI1 142136Z 01004KT 33/14 A3013 RMK A01 T03270138  RH  032%=      5-min Rain = 0
KAI1 142137Z 01004KT 33/14 A3013 RMK A01 T03260142  RH  033%=      5-min Rain = 0
KAI1 142138Z 02005KT 33/14 A3013 RMK A01 T03260142  RH  033%=      5-min Rain = 0
KAI1 142139Z 01005KT 33/14 A3013 RMK A01 T03260142  RH  033%=      5-min Rain = 0
KAI1 142140Z 03004KT 33/14 A3013 RMK A01 T03300142  RH  032%=      5-min Rain = 0
KAI1 142141Z 02004KT 33/14 A3013 RMK A01 T03310141  RH  032%=      5-min Rain = 0
KAI1 142142Z 03006KT 33/15 A3013 RMK A01 T03300152  RH  034%=      5-min Rain = 0
KAI1 142143Z 03005KT 33/14 A3013 RMK A01 T03280143  RH  033%=      5-min Rain = 0
KAI1 142144Z 04004KT 33/14 A3013 RMK A01 T03270139  RH  032%=      5-min Rain = 0
KAI1 142145Z 05004KT 33/14 A3013 RMK A01 T03270137  RH  032%=      5-min Rain = 0
KAI1 142146Z 02004KT 33/13 A3013 RMK A01 T03270133  RH  031%=      5-min Rain = 0
KAI1 142147Z 03004KT 33/13 A3013 RMK A01 T03260131  RH  031%=      5-min Rain = 0
KAI1 142148Z 05002KT 33/13 A3013 RMK A01 T03250130  RH  031%=      5-min Rain = 0
KAI1 142149Z 03001KT 32/13 A3013 RMK A01 T03240133  RH  031%=      5-min Rain = 0
KAI1 142150Z 01004KT 33/14 A3013 RMK A01 T03260137  RH  032%=      5-min Rain = 0
KAI1 142151Z 04006KT 33/14 A3013 RMK A01 T03260136  RH  032%=      5-min Rain = 0
KAI1 142152Z 02004KT 33/14 A3013 RMK A01 T03260143  RH  033%=      5-min Rain = 0
KAI1 142153Z 02004KT 33/14 A3013 RMK A01 T03270139  RH  032%=      5-min Rain = 0
KAI1 142154Z 02004KT 33/15 A3013 RMK A01 T03280151  RH  034%=      5-min Rain = 0
KAI1 142155Z 35005KT 33/14 A3013 RMK A01 T03290140  RH  032%=      5-min Rain = 0
KAI1 142156Z 36005KT 33/13 A3013 RMK A01 T03290130  RH  030%=      5-min Rain = 0
KAI1 142157Z 35005KT 33/13 A3013 RMK A01 T03290130  RH  030%=      5-min Rain = 0
KAI1 142158Z 34005KT 33/13 A3012 RMK A01 T03290129  RH  030%=      5-min Rain = 0
KAI1 142159Z 34006KT 33/13 A3012 RMK A01 T03300129  RH  029%=      5-min Rain = 0
KAI1 142200Z 36003KT 33/13 A3012 RMK A01 T03300126  RH  029%=      5-min Rain = 0
KAI1 142201Z 01003KT 33/12 A3012 RMK A01 T03280123  RH  029%=      5-min Rain = 0
KAI1 142202Z 01003KT 33/12 A3012 RMK A01 T03260124  RH  029%=      5-min Rain = 0
KAI1 142203Z 06000KT 33/12 A3012 RMK A01 T03260124  RH  029%=      5-min Rain = 0
KAI1 142204Z 15000KT 33/13 A3012 RMK A01 T03270127  RH  029%=      5-min Rain = 0
KAI1 142205Z 34002KT 33/13 A3012 RMK A01 T03310128  RH  029%=      5-min Rain = 0
KAI1 142206Z 03001KT 33/12 A3012 RMK A01 T03320124  RH  028%=      5-min Rain = 0
KAI1 142207Z 03001KT 33/13 A3012 RMK A01 T03330125  RH  028%=      5-min Rain = 0
KAI1 142208Z 02005KT 33/13 A3012 RMK A01 T03340128  RH  029%=      5-min Rain = 0
KAI1 142209Z 02003KT 33/13 A3012 RMK A01 T03320125  RH  029%=      5-min Rain = 0
KAI1 142210Z 02004KT 33/13 A3012 RMK A01 T03300129  RH  030%=      5-min Rain = 0
KAI1 142211Z 02004KT 33/13 A3012 RMK A01 T03290132  RH  030%=      5-min Rain = 0
KAI1 142212Z 02005KT 33/14 A3012 RMK A01 T03270142  RH  033%=      5-min Rain = 0
KAI1 142213Z 01007KT 33/14 A3012 RMK A01 T03260141  RH  033%=      5-min Rain = 0
KAI1 142214Z 01005KT 33/13 A3012 RMK A01 T03280131  RH  030%=      5-min Rain = 0
KAI1 142215Z 01002KT 33/13 A3012 RMK A01 T03300126  RH  029%=      5-min Rain = 0
KAI1 142216Z 36003KT 33/13 A3012 RMK A01 T03290126  RH  029%=      5-min Rain = 0
KAI1 142217Z 03004KT 33/13 A3012 RMK A01 T03290130  RH  030%=      5-min Rain = 0
KAI1 142218Z 04004KT 33/13 A3012 RMK A01 T03310129  RH  029%=      5-min Rain = 0
KAI1 142219Z 04003KT 33/13 A3012 RMK A01 T03300130  RH  030%=      5-min Rain = 0
KAI1 142220Z 08002KT 33/13 A3012 RMK A01 T03290127  RH  029%=      5-min Rain = 0
KAI1 142221Z 08003KT 33/13 A3012 RMK A01 T03280128  RH  030%=      5-min Rain = 0
KAI1 142222Z 07003KT 33/13 A3012 RMK A01 T03280131  RH  030%=      5-min Rain = 0
KAI1 142223Z 04002KT 33/13 A3012 RMK A01 T03290132  RH  030%=      5-min Rain = 0
KAI1 142224Z 03004KT 33/14 A3012 RMK A01 T03310137  RH  031%=      5-min Rain = 0
KAI1 142225Z 03004KT 33/14 A3012 RMK A01 T03310136  RH  031%=      5-min Rain = 0
KAI1 142226Z 01005KT 33/13 A3012 RMK A01 T03310134  RH  030%=      5-min Rain = 0
KAI1 142227Z 02005KT 33/13 A3012 RMK A01 T03290131  RH  030%=      5-min Rain = 0
KAI1 142228Z 01004KT 33/13 A3012 RMK A01 T03270127  RH  030%=      5-min Rain = 0
KAI1 142229Z 36002KT 33/13 A3012 RMK A01 T03260128  RH  030%=      5-min Rain = 0
KAI1 142230Z 03002KT 33/13 A3012 RMK A01 T03260126  RH  030%=      5-min Rain = 0
KAI1 142231Z 06002KT 33/13 A3012 RMK A01 T03280126  RH  029%=      5-min Rain = 0
KAI1 142232Z 06002KT 33/12 A3012 RMK A01 T03280124  RH  029%=      5-min Rain = 0
KAI1 142233Z 01002KT 33/12 A3012 RMK A01 T03280124  RH  029%=      5-min Rain = 0
KAI1 142234Z 07001KT 33/12 A3012 RMK A01 T03290123  RH  029%=      5-min Rain = 0
KAI1 142235Z 11002KT 33/13 A3012 RMK A01 T03290126  RH  029%=      5-min Rain = 0
KAI1 142236Z 10004KT 33/13 A3012 RMK A01 T03300131  RH  030%=      5-min Rain = 0
KAI1 142237Z 08004KT 33/13 A3012 RMK A01 T03310133  RH  030%=      5-min Rain = 0
KAI1 142238Z 09005KT 33/14 A3012 RMK A01 T03300136  RH  031%=      5-min Rain = 0
KAI1 142239Z 08006KT 33/15 A3012 RMK A01 T03280145  RH  033%=      5-min Rain = 0
KAI1 142240Z 09007KT 33/13 A3012 RMK A01 T03280134  RH  031%=      5-min Rain = 0
KAI1 142241Z 09007KT 33/14 A3012 RMK A01 T03280138  RH  032%=      5-min Rain = 0
KAI1 142242Z 12006KT 33/14 A3012 RMK A01 T03280140  RH  032%=      5-min Rain = 0
KAI1 142243Z 10006KT 33/14 A3012 RMK A01 T03280135  RH  031%=      5-min Rain = 0
KAI1 142244Z 10005KT 33/13 A3012 RMK A01 T03290134  RH  031%=      5-min Rain = 0
KAI1 142245Z 08005KT 33/13 A3012 RMK A01 T03290133  RH  031%=      5-min Rain = 0
KAI1 142246Z 08002KT 33/13 A3012 RMK A01 T03270129  RH  030%=      5-min Rain = 0
KAI1 142247Z 08003KT 33/13 A3012 RMK A01 T03270131  RH  030%=      5-min Rain = 0
KAI1 142248Z 09004KT 33/13 A3012 RMK A01 T03280129  RH  030%=      5-min Rain = 0
KAI1 142249Z 09003KT 33/13 A3012 RMK A01 T03280130  RH  030%=      5-min Rain = 0
KAI1 142250Z 09003KT 33/13 A3012 RMK A01 T03280128  RH  030%=      5-min Rain = 0
KAI1 142251Z 08003KT 33/13 A3012 RMK A01 T03270128  RH  030%=      5-min Rain = 0
KAI1 142252Z 10003KT 33/14 A3012 RMK A01 T03260136  RH  031%=      5-min Rain = 0
KAI1 142253Z 08002KT 33/13 A3012 RMK A01 T03270128  RH  030%=      5-min Rain = 0
KAI1 142254Z 04003KT 33/13 A3012 RMK A01 T03270129  RH  030%=      5-min Rain = 0
KAI1 142255Z 04002KT 33/13 A3012 RMK A01 T03280132  RH  031%=      5-min Rain = 0
KAI1 142256Z 04003KT 33/13 A3012 RMK A01 T03280130  RH  030%=      5-min Rain = 0
KAI1 142257Z 04003KT 33/13 A3012 RMK A01 T03300131  RH  030%=      5-min Rain = 0
KAI1 142258Z 06002KT 33/13 A3012 RMK A01 T03300127  RH  029%=      5-min Rain = 0
KAI1 142259Z 06003KT 33/13 A3012 RMK A01 T03290129  RH  030%=      5-min Rain = 0
KAI1 142300Z 07002KT 33/13 A3012 RMK A01 T03290127  RH  029%=      5-min Rain = 0
KAI1 142301Z 10001KT 33/13 A3012 RMK A01 T03280125  RH  029%=      5-min Rain = 0
KAI1 142302Z 09002KT 33/13 A3012 RMK A01 T03280127  RH  030%=      5-min Rain = 0
KAI1 142303Z 11002KT 33/13 A3012 RMK A01 T03270127  RH  030%=      5-min Rain = 0
KAI1 142304Z 11002KT 33/13 A3012 RMK A01 T03270130  RH  030%=      5-min Rain = 0
KAI1 142305Z 09002KT 33/13 A3012 RMK A01 T03280131  RH  030%=      5-min Rain = 0
KAI1 142306Z 05003KT 33/13 A3012 RMK A01 T03290134  RH  031%=      5-min Rain = 0
KAI1 142307Z 04002KT 33/13 A3012 RMK A01 T03290127  RH  029%=      5-min Rain = 0
KAI1 142308Z 06002KT 33/13 A3012 RMK A01 T03290130  RH  030%=      5-min Rain = 0
KAI1 142309Z 08003KT 33/14 A3012 RMK A01 T03290139  RH  032%=      5-min Rain = 0
KAI1 142310Z 08002KT 33/14 A3012 RMK A01 T03280135  RH  031%=      5-min Rain = 0
KAI1 142311Z 09004KT 33/14 A3012 RMK A01 T03280138  RH  032%=      5-min Rain = 0
KAI1 142312Z 11004KT 33/13 A3012 RMK A01 T03280129  RH  030%=      5-min Rain = 0
KAI1 142313Z 13004KT 33/13 A3012 RMK A01 T03270129  RH  030%=      5-min Rain = 0
KAI1 142314Z 11002KT 33/13 A3012 RMK A01 T03270127  RH  030%=      5-min Rain = 0
KAI1 142315Z 10001KT 33/13 A3012 RMK A01 T03280127  RH  029%=      5-min Rain = 0
KAI1 142316Z 09000KT 33/12 A3012 RMK A01 T03280124  RH  029%=      5-min Rain = 0
KAI1 142317Z 00000KT 33/12 A3012 RMK A01 T03290124  RH  029%=      5-min Rain = 0
KAI1 142318Z 33001KT 33/13 A3012 RMK A01 T03310127  RH  029%=      5-min Rain = 0
KAI1 142319Z 32000KT 33/13 A3012 RMK A01 T03320126  RH  029%=      5-min Rain = 0
KAI1 142320Z 25000KT 33/13 A3012 RMK A01 T03330126  RH  028%=      5-min Rain = 0
KAI1 142321Z 10000KT 34/13 A3012 RMK A01 T03350127  RH  028%=      5-min Rain = 0
KAI1 142322Z 11001KT 34/13 A3012 RMK A01 T03360129  RH  028%=      5-min Rain = 0
KAI1 142323Z 09001KT 34/13 A3012 RMK A01 T03350129  RH  029%=      5-min Rain = 0
KAI1 142324Z 08001KT 33/14 A3012 RMK A01 T03340140  RH  031%=      5-min Rain = 0
KAI1 142325Z 07001KT 33/14 A3012 RMK A01 T03330136  RH  031%=      5-min Rain = 0
KAI1 142326Z 10000KT 33/14 A3012 RMK A01 T03330141  RH  032%=      5-min Rain = 0
KAI1 142327Z 10001KT 33/14 A3012 RMK A01 T03340140  RH  031%=      5-min Rain = 0
KAI1 142328Z 02002KT 33/14 A3012 RMK A01 T03330136  RH  030%=      5-min Rain = 0
KAI1 142329Z 02003KT 33/14 A3012 RMK A01 T03320144  RH  032%=      5-min Rain = 0
KAI1 142330Z 03003KT 33/15 A3012 RMK A01 T03300145  RH  033%=      5-min Rain = 0
KAI1 142331Z 02004KT 33/13 A3012 RMK A01 T03290132  RH  030%=      5-min Rain = 0
KAI1 142332Z 04003KT 33/13 A3012 RMK A01 T03280130  RH  030%=      5-min Rain = 0
KAI1 142333Z 04002KT 33/13 A3012 RMK A01 T03280132  RH  030%=      5-min Rain = 0
KAI1 142334Z 03002KT 33/13 A3012 RMK A01 T03300132  RH  030%=      5-min Rain = 0
KAI1 142335Z 06002KT 33/13 A3012 RMK A01 T03300129  RH  030%=      5-min Rain = 0
KAI1 142336Z 06002KT 33/14 A3012 RMK A01 T03290137  RH  031%=      5-min Rain = 0
KAI1 142337Z 07001KT 33/14 A3012 RMK A01 T03290139  RH  032%=      5-min Rain = 0
KAI1 142338Z 06003KT 33/14 A3012 RMK A01 T03300144  RH  033%=      5-min Rain = 0
KAI1 142339Z 05003KT 33/14 A3012 RMK A01 T03290144  RH  033%=      5-min Rain = 0
KAI1 142340Z 05003KT 33/14 A3012 RMK A01 T03280144  RH  033%=      5-min Rain = 0
KAI1 142341Z 06003KT 33/13 A3011 RMK A01 T03270134  RH  031%=      5-min Rain = 0
KAI1 142342Z 08003KT 33/14 A3011 RMK A01 T03280138  RH  032%=      5-min Rain = 0
KAI1 142343Z 10002KT 33/14 A3011 RMK A01 T03280139  RH  032%=      5-min Rain = 0
KAI1 142344Z 10003KT 33/15 A3011 RMK A01 T03280150  RH  034%=      5-min Rain = 0
KAI1 142345Z 10003KT 33/16 A3011 RMK A01 T03280155  RH  035%=      5-min Rain = 0
KAI1 142346Z 10004KT 33/15 A3011 RMK A01 T03260151  RH  035%=      5-min Rain = 0
KAI1 142347Z 10003KT 32/15 A3011 RMK A01 T03240146  RH  034%=      5-min Rain = 0
KAI1 142348Z 12005KT 32/14 A3011 RMK A01 T03240144  RH  034%=      5-min Rain = 0
KAI1 142349Z 13005KT 32/15 A3011 RMK A01 T03230146  RH  034%=      5-min Rain = 0
KAI1 142350Z 12005KT 32/15 A3011 RMK A01 T03230147  RH  035%=      5-min Rain = 0
KAI1 142351Z 13005KT 32/15 A3011 RMK A01 T03220149  RH  035%=      5-min Rain = 0
KAI1 142352Z 14005KT 32/15 A3011 RMK A01 T03210145  RH  034%=      5-min Rain = 0
KAI1 142353Z 14005KT 32/14 A3011 RMK A01 T03210144  RH  034%=      5-min Rain = 0
KAI1 142354Z 13005KT 32/14 A3011 RMK A01 T03220142  RH  034%=      5-min Rain = 0
KAI1 142355Z 11003KT 32/15 A3011 RMK A01 T03220147  RH  035%=      5-min Rain = 0
KAI1 142356Z 11004KT 32/15 A3011 RMK A01 T03230146  RH  034%=      5-min Rain = 0
KAI1 142357Z 11004KT 32/15 A3011 RMK A01 T03220152  RH  036%=      5-min Rain = 0
KAI1 142358Z 10003KT 32/16 A3011 RMK A01 T03210158  RH  037%=      5-min Rain = 0
KAI1 142359Z 11004KT 32/16 A3011 RMK A01 T03210159  RH  038%=      5-min Rain = 0
KAI1 150000Z 10004KT 32/16 A3011 RMK A01 T03210161  RH  038%=      5-min Rain = 0
KAI1 150001Z 10004KT 32/16 A3011 RMK A01 T03200160  RH  038%=      5-min Rain = 0
KAI1 150002Z 11004KT 32/15 A3011 RMK A01 T03200152  RH  036%=      5-min Rain = 0
KAI1 150003Z 11004KT 32/15 A3011 RMK A01 T03190153  RH  037%=      5-min Rain = 0
KAI1 150004Z 11003KT 32/15 A3011 RMK A01 T03190154  RH  037%=      5-min Rain = 0
KAI1 150005Z 12003KT 32/15 A3011 RMK A01 T03190150  RH  036%=      5-min Rain = 0
KAI1 150006Z 11004KT 32/16 A3011 RMK A01 T03190155  RH  037%=      5-min Rain = 0
KAI1 150007Z 11005KT 32/16 A3011 RMK A01 T03190159  RH  038%=      5-min Rain = 0
KAI1 150008Z 10005KT 32/16 A3011 RMK A01 T03180159  RH  038%=      5-min Rain = 0
KAI1 150009Z 10006KT 32/16 A3011 RMK A01 T03170156  RH  038%=      5-min Rain = 0
KAI1 150010Z 11007KT 32/15 A3011 RMK A01 T03160154  RH  038%=      5-min Rain = 0
KAI1 150011Z 11007KT 32/16 A3011 RMK A01 T03150155  RH  038%=      5-min Rain = 0
KAI1 150012Z 10006KT 31/16 A3011 RMK A01 T03130157  RH  039%=      5-min Rain = 0
KAI1 150013Z 09006KT 31/16 A3011 RMK A01 T03110158  RH  040%=      5-min Rain = 0
KAI1 150014Z 10005KT 31/16 A3011 RMK A01 T03100158  RH  040%=      5-min Rain = 0
KAI1 150015Z 09006KT 31/16 A3011 RMK A01 T03090159  RH  040%=      5-min Rain = 0
KAI1 150016Z 09005KT 31/16 A3011 RMK A01 T03080159  RH  040%=      5-min Rain = 0
KAI1 150017Z 10005KT 31/16 A3011 RMK A01 T03080164  RH  042%=      5-min Rain = 0
KAI1 150018Z 10005KT 31/16 A3011 RMK A01 T03080161  RH  041%=      5-min Rain = 0
KAI1 150019Z 10005KT 31/16 A3011 RMK A01 T03070161  RH  041%=      5-min Rain = 0
KAI1 150020Z 10005KT 31/16 A3011 RMK A01 T03070164  RH  042%=      5-min Rain = 0
KAI1 150021Z 10005KT 31/16 A3011 RMK A01 T03070163  RH  042%=      5-min Rain = 0
KAI1 150022Z 11005KT 31/16 A3011 RMK A01 T03070163  RH  042%=      5-min Rain = 0
KAI1 150023Z 11005KT 31/16 A3011 RMK A01 T03070164  RH  042%=      5-min Rain = 0
KAI1 150024Z 11006KT 31/16 A3011 RMK A01 T03060161  RH  042%=      5-min Rain = 0
KAI1 150025Z 11006KT 31/16 A3011 RMK A01 T03060159  RH  041%=      5-min Rain = 0
KAI1 150026Z 11006KT 31/16 A3011 RMK A01 T03060158  RH  041%=      5-min Rain = 0
KAI1 150027Z 11005KT 31/16 A3011 RMK A01 T03060160  RH  041%=      5-min Rain = 0
KAI1 150028Z 11006KT 31/16 A3011 RMK A01 T03060160  RH  041%=      5-min Rain = 0
KAI1 150029Z 11005KT 31/16 A3011 RMK A01 T03060160  RH  041%=      5-min Rain = 0
KAI1 150030Z 11006KT 31/16 A3011 RMK A01 T03050159  RH  041%=      5-min Rain = 0
KAI1 150031Z 11006KT 30/16 A3011 RMK A01 T03040159  RH  042%=      5-min Rain = 0
KAI1 150032Z 11006KT 30/16 A3011 RMK A01 T03030159  RH  042%=      5-min Rain = 0
KAI1 150033Z 11006KT 30/16 A3011 RMK A01 T03020162  RH  043%=      5-min Rain = 0
KAI1 150034Z 10006KT 30/16 A3011 RMK A01 T03010164  RH  044%=      5-min Rain = 0
KAI1 150035Z 10006KT 30/16 A3011 RMK A01 T03000162  RH  043%=      5-min Rain = 0
KAI1 150036Z 09006KT 30/16 A3011 RMK A01 T03000162  RH  043%=      5-min Rain = 0
KAI1 150037Z 10005KT 30/16 A3011 RMK A01 T03000161  RH  043%=      5-min Rain = 0
KAI1 150038Z 10005KT 30/16 A3011 RMK A01 T03000162  RH  043%=      5-min Rain = 0
KAI1 150039Z 09005KT 30/16 A3012 RMK A01 T03000161  RH  043%=      5-min Rain = 0
KAI1 150040Z 09005KT 30/16 A3012 RMK A01 T03000163  RH  044%=      5-min Rain = 0
KAI1 150041Z 10005KT 30/16 A3012 RMK A01 T03000164  RH  044%=      5-min Rain = 0
KAI1 150042Z 10005KT 30/17 A3012 RMK A01 T03000165  RH  044%=      5-min Rain = 0
KAI1 150043Z 10005KT 30/17 A3012 RMK A01 T02990167  RH  045%=      5-min Rain = 0
KAI1 150044Z 10005KT 30/17 A3012 RMK A01 T02980168  RH  045%=      5-min Rain = 0
KAI1 150045Z 10005KT 30/17 A3012 RMK A01 T02970170  RH  046%=      5-min Rain = 0
KAI1 150046Z 10005KT 30/17 A3012 RMK A01 T02970170  RH  046%=      5-min Rain = 0
KAI1 150047Z 10005KT 30/17 A3012 RMK A01 T02960169  RH  047%=      5-min Rain = 0
KAI1 150048Z 11005KT 30/17 A3012 RMK A01 T02950171  RH  047%=      5-min Rain = 0
KAI1 150049Z 11005KT 30/17 A3012 RMK A01 T02950171  RH  047%=      5-min Rain = 0
KAI1 150050Z 11005KT 29/17 A3012 RMK A01 T02940171  RH  048%=      5-min Rain = 0
KAI1 150051Z 10005KT 29/17 A3012 RMK A01 T02930172  RH  048%=      5-min Rain = 0
KAI1 150052Z 10005KT 29/17 A3012 RMK A01 T02920173  RH  049%=      5-min Rain = 0
KAI1 150053Z 10005KT 29/17 A3012 RMK A01 T02900174  RH  050%=      5-min Rain = 0
KAI1 150054Z 10006KT 29/17 A3012 RMK A01 T02890174  RH  050%=      5-min Rain = 0
KAI1 150055Z 10005KT 29/17 A3012 RMK A01 T02870172  RH  050%=      5-min Rain = 0
KAI1 150056Z 10006KT 29/17 A3012 RMK A01 T02860172  RH  050%=      5-min Rain = 0
KAI1 150057Z 09005KT 29/17 A3012 RMK A01 T02850171  RH  050%=      5-min Rain = 0
KAI1 150058Z 09005KT 28/17 A3012 RMK A01 T02840170  RH  050%=      5-min Rain = 0
KAI1 150059Z 09005KT 28/17 A3012 RMK A01 T02830170  RH  050%=      5-min Rain = 0
KAI1 150100Z 09005KT 28/17 A3012 RMK A01 T02820168  RH  050%=      5-min Rain = 0
KAI1 150101Z 09005KT 28/17 A3012 RMK A01 T02810167  RH  050%=      5-min Rain = 0
KAI1 150102Z 09006KT 28/17 A3012 RMK A01 T02800167  RH  050%=      5-min Rain = 0
KAI1 150103Z 09006KT 28/16 A3012 RMK A01 T02790164  RH  050%=      5-min Rain = 0
KAI1 150104Z 09006KT 28/16 A3012 RMK A01 T02780162  RH  049%=      5-min Rain = 0
KAI1 150105Z 09006KT 28/16 A3012 RMK A01 T02780161  RH  049%=      5-min Rain = 0
KAI1 150106Z 08005KT 28/16 A3012 RMK A01 T02780158  RH  048%=      5-min Rain = 0
KAI1 150107Z 09005KT 28/16 A3013 RMK A01 T02780158  RH  048%=      5-min Rain = 0
KAI1 150108Z 08005KT 28/16 A3013 RMK A01 T02780158  RH  048%=      5-min Rain = 0
KAI1 150109Z 09005KT 28/16 A3013 RMK A01 T02770158  RH  048%=      5-min Rain = 0
KAI1 150110Z 09005KT 28/16 A3013 RMK A01 T02770158  RH  048%=      5-min Rain = 0
KAI1 150111Z 09005KT 28/16 A3013 RMK A01 T02750158  RH  049%=      5-min Rain = 0
KAI1 150112Z 09005KT 27/16 A3013 RMK A01 T02740159  RH  049%=      5-min Rain = 0
KAI1 150113Z 09004KT 27/16 A3013 RMK A01 T02730159  RH  050%=      5-min Rain = 0
KAI1 150114Z 09005KT 27/16 A3013 RMK A01 T02720160  RH  050%=      5-min Rain = 0
KAI1 150115Z 09005KT 27/16 A3013 RMK A01 T02710161  RH  051%=      5-min Rain = 0
KAI1 150116Z 09005KT 27/16 A3013 RMK A01 T02690161  RH  052%=      5-min Rain = 0
KAI1 150117Z 09005KT 27/16 A3013 RMK A01 T02680162  RH  052%=      5-min Rain = 0
KAI1 150118Z 09005KT 27/16 A3013 RMK A01 T02670162  RH  052%=      5-min Rain = 0
KAI1 150119Z 09005KT 27/16 A3013 RMK A01 T02660162  RH  053%=      5-min Rain = 0
KAI1 150120Z 08006KT 27/16 A3013 RMK A01 T02650160  RH  052%=      5-min Rain = 0
KAI1 150121Z 08006KT 27/16 A3013 RMK A01 T02650156  RH  051%=      5-min Rain = 0
KAI1 150122Z 08006KT 27/15 A3013 RMK A01 T02660153  RH  050%=      5-min Rain = 0
KAI1 150123Z 08006KT 27/15 A3013 RMK A01 T02680152  RH  049%=      5-min Rain = 0
KAI1 150124Z 08005KT 27/15 A3013 RMK A01 T02690152  RH  049%=      5-min Rain = 0
KAI1 150125Z 08005KT 27/15 A3013 RMK A01 T02690154  RH  049%=      5-min Rain = 0
KAI1 150126Z 09005KT 27/16 A3013 RMK A01 T02680155  RH  050%=      5-min Rain = 0
KAI1 150127Z 09005KT 27/16 A3013 RMK A01 T02660155  RH  050%=      5-min Rain = 0
KAI1 150128Z 09005KT 27/16 A3013 RMK A01 T02650156  RH  051%=      5-min Rain = 0
KAI1 150129Z 09005KT 26/16 A3013 RMK A01 T02630155  RH  052%=      5-min Rain = 0
KAI1 150130Z 09006KT 26/16 A3013 RMK A01 T02610156  RH  052%=      5-min Rain = 0
KAI1 150131Z 09006KT 26/16 A3013 RMK A01 T02600155  RH  052%=      5-min Rain = 0
KAI1 150132Z 09005KT 26/15 A3013 RMK A01 T02600154  RH  052%=      5-min Rain = 0
KAI1 150133Z 08006KT 26/15 A3013 RMK A01 T02590153  RH  052%=      5-min Rain = 0
KAI1 150134Z 08006KT 26/15 A3013 RMK A01 T02590152  RH  052%=      5-min Rain = 0
KAI1 150135Z 08007KT 26/15 A3013 RMK A01 T02600150  RH  051%=      5-min Rain = 0
KAI1 150136Z 08007KT 26/15 A3013 RMK A01 T02600150  RH  050%=      5-min Rain = 0
KAI1 150137Z 08006KT 26/15 A3013 RMK A01 T02610149  RH  050%=      5-min Rain = 0
KAI1 150138Z 08006KT 26/15 A3013 RMK A01 T02610149  RH  050%=      5-min Rain = 0
KAI1 150139Z 09006KT 26/15 A3013 RMK A01 T02610149  RH  050%=      5-min Rain = 0
KAI1 150140Z 08006KT 26/15 A3013 RMK A01 T02600150  RH  051%=      5-min Rain = 0
KAI1 150141Z 08006KT 26/15 A3013 RMK A01 T02590150  RH  051%=      5-min Rain = 0
KAI1 150142Z 08007KT 26/15 A3013 RMK A01 T02580149  RH  051%=      5-min Rain = 0
KAI1 150143Z 08006KT 26/15 A3013 RMK A01 T02580149  RH  051%=      5-min Rain = 0
KAI1 150144Z 09006KT 26/15 A3013 RMK A01 T02570148  RH  051%=      5-min Rain = 0
KAI1 150145Z 08006KT 26/15 A3014 RMK A01 T02560149  RH  051%=      5-min Rain = 0
KAI1 150146Z 08006KT 26/15 A3014 RMK A01 T02560149  RH  051%=      5-min Rain = 0
KAI1 150147Z 08006KT 26/15 A3014 RMK A01 T02550149  RH  052%=      5-min Rain = 0
KAI1 150148Z 09006KT 26/15 A3014 RMK A01 T02550150  RH  052%=      5-min Rain = 0
KAI1 150149Z 09006KT 25/15 A3014 RMK A01 T02540151  RH  053%=      5-min Rain = 0
KAI1 150150Z 09006KT 25/15 A3014 RMK A01 T02540151  RH  053%=      5-min Rain = 0
KAI1 150151Z 09006KT 25/15 A3014 RMK A01 T02530151  RH  053%=      5-min Rain = 0
KAI1 150152Z 09006KT 25/15 A3014 RMK A01 T02530151  RH  053%=      5-min Rain = 0
KAI1 150153Z 09006KT 25/15 A3014 RMK A01 T02520151  RH  054%=      5-min Rain = 0
KAI1 150154Z 09006KT 25/15 A3014 RMK A01 T02510152  RH  054%=      5-min Rain = 0
KAI1 150155Z 09006KT 25/15 A3014 RMK A01 T02500153  RH  055%=      5-min Rain = 0
KAI1 150156Z 10006KT 25/15 A3014 RMK A01 T02490153  RH  055%=      5-min Rain = 0
KAI1 150157Z 10005KT 25/15 A3014 RMK A01 T02480153  RH  056%=      5-min Rain = 0
KAI1 150158Z 10005KT 25/15 A3014 RMK A01 T02470154  RH  056%=      5-min Rain = 0
KAI1 150159Z 10006KT 25/16 A3014 RMK A01 T02460155  RH  057%=      5-min Rain = 0
KAI1 150200Z 10006KT 25/16 A3015 RMK A01 T02450155  RH  057%=      5-min Rain = 0
KAI1 150201Z 10006KT 24/16 A3015 RMK A01 T02440156  RH  058%=      5-min Rain = 0
KAI1 150202Z 10006KT 24/16 A3015 RMK A01 T02430157  RH  059%=      5-min Rain = 0
KAI1 150203Z 10006KT 24/16 A3015 RMK A01 T02420158  RH  059%=      5-min Rain = 0
KAI1 150204Z 10006KT 24/16 A3015 RMK A01 T02420158  RH  059%=      5-min Rain = 0
KAI1 150205Z 09006KT 24/16 A3015 RMK A01 T02410157  RH  059%=      5-min Rain = 0
KAI1 150206Z 09006KT 24/16 A3015 RMK A01 T02410157  RH  059%=      5-min Rain = 0
KAI1 150207Z 09006KT 24/16 A3015 RMK A01 T02420156  RH  059%=      5-min Rain = 0
KAI1 150208Z 09006KT 24/16 A3015 RMK A01 T02420156  RH  059%=      5-min Rain = 0
KAI1 150209Z 09006KT 24/16 A3015 RMK A01 T02420156  RH  059%=      5-min Rain = 0
KAI1 150210Z 09006KT 24/16 A3015 RMK A01 T02430157  RH  059%=      5-min Rain = 0
KAI1 150211Z 09006KT 24/16 A3015 RMK A01 T02420158  RH  059%=      5-min Rain = 0
KAI1 150212Z 09006KT 24/16 A3015 RMK A01 T02420158  RH  060%=      5-min Rain = 0
KAI1 150213Z 09007KT 24/16 A3015 RMK A01 T02410158  RH  060%=      5-min Rain = 0
KAI1 150214Z 10007KT 24/16 A3015 RMK A01 T02400159  RH  060%=      5-min Rain = 0
KAI1 150215Z 09008KT 24/16 A3015 RMK A01 T02400158  RH  060%=      5-min Rain = 0
KAI1 150216Z 10008KT 24/16 A3015 RMK A01 T02400157  RH  060%=      5-min Rain = 0
KAI1 150217Z 10008KT 24/15 A3015 RMK A01 T02410154  RH  058%=      5-min Rain = 0
KAI1 150218Z 10008KT 24/15 A3015 RMK A01 T02430154  RH  058%=      5-min Rain = 0
KAI1 150219Z 10007KT 24/15 A3015 RMK A01 T02440154  RH  057%=      5-min Rain = 0
KAI1 150220Z 11007KT 25/15 A3015 RMK A01 T02450154  RH  057%=      5-min Rain = 0
KAI1 150221Z 10007KT 25/15 A3015 RMK A01 T02460154  RH  057%=      5-min Rain = 0
KAI1 150222Z 11007KT 25/16 A3015 RMK A01 T02460155  RH  057%=      5-min Rain = 0
KAI1 150223Z 10007KT 25/16 A3015 RMK A01 T02470155  RH  057%=      5-min Rain = 0
KAI1 150224Z 10007KT 25/16 A3015 RMK A01 T02460155  RH  057%=      5-min Rain = 0
KAI1 150225Z 10007KT 25/16 A3015 RMK A01 T02470155  RH  057%=      5-min Rain = 0
KAI1 150226Z 11007KT 25/16 A3015 RMK A01 T02470155  RH  057%=      5-min Rain = 0
KAI1 150227Z 11007KT 25/16 A3016 RMK A01 T02470155  RH  057%=      5-min Rain = 0
KAI1 150228Z 11007KT 25/16 A3016 RMK A01 T02470155  RH  057%=      5-min Rain = 0
KAI1 150229Z 11007KT 25/16 A3016 RMK A01 T02470155  RH  057%=      5-min Rain = 0
KAI1 150230Z 11007KT 25/16 A3016 RMK A01 T02470155  RH  057%=      5-min Rain = 0
KAI1 150231Z 11007KT 25/16 A3016 RMK A01 T02470155  RH  056%=      5-min Rain = 0
KAI1 150232Z 11007KT 25/16 A3016 RMK A01 T02480156  RH  057%=      5-min Rain = 0
KAI1 150233Z 11007KT 25/16 A3016 RMK A01 T02480156  RH  057%=      5-min Rain = 0
KAI1 150234Z 11007KT 25/16 A3016 RMK A01 T02490157  RH  057%=      5-min Rain = 0
KAI1 150235Z 11007KT 25/16 A3016 RMK A01 T02490158  RH  057%=      5-min Rain = 0
KAI1 150236Z 11007KT 25/16 A3016 RMK A01 T02480158  RH  057%=      5-min Rain = 0
KAI1 150237Z 11007KT 25/16 A3016 RMK A01 T02490159  RH  057%=      5-min Rain = 0
KAI1 150238Z 10007KT 25/16 A3016 RMK A01 T02490159  RH  057%=      5-min Rain = 0
KAI1 150239Z 10007KT 25/16 A3016 RMK A01 T02500159  RH  057%=      5-min Rain = 0
KAI1 150240Z 10007KT 25/16 A3016 RMK A01 T02500160  RH  057%=      5-min Rain = 0
KAI1 150241Z 10007KT 25/16 A3016 RMK A01 T02500161  RH  057%=      5-min Rain = 0
KAI1 150242Z 10007KT 25/16 A3016 RMK A01 T02500161  RH  057%=      5-min Rain = 0
KAI1 150243Z 10007KT 25/16 A3016 RMK A01 T02500161  RH  058%=      5-min Rain = 0
KAI1 150244Z 11007KT 25/16 A3016 RMK A01 T02500161  RH  058%=      5-min Rain = 0
KAI1 150245Z 11007KT 25/16 A3016 RMK A01 T02500162  RH  058%=      5-min Rain = 0
KAI1 150246Z 10007KT 25/16 A3016 RMK A01 T02500162  RH  058%=      5-min Rain = 0
KAI1 150247Z 11007KT 25/16 A3016 RMK A01 T02500162  RH  058%=      5-min Rain = 0
KAI1 150248Z 10007KT 25/16 A3016 RMK A01 T02500163  RH  058%=      5-min Rain = 0
KAI1 150249Z 10007KT 25/16 A3016 RMK A01 T02500163  RH  058%=      5-min Rain = 0
KAI1 150250Z 10007KT 25/16 A3016 RMK A01 T02500163  RH  058%=      5-min Rain = 0
KAI1 150251Z 10007KT 25/16 A3016 RMK A01 T02490163  RH  059%=      5-min Rain = 0
KAI1 150252Z 10007KT 25/16 A3016 RMK A01 T02490163  RH  059%=      5-min Rain = 0
KAI1 150253Z 10007KT 25/16 A3016 RMK A01 T02490163  RH  059%=      5-min Rain = 0
KAI1 150254Z 10007KT 25/16 A3017 RMK A01 T02490163  RH  059%=      5-min Rain = 0
KAI1 150255Z 10007KT 25/16 A3017 RMK A01 T02490163  RH  059%=      5-min Rain = 0
KAI1 150256Z 10007KT 25/16 A3017 RMK A01 T02490164  RH  059%=      5-min Rain = 0
KAI1 150257Z 11007KT 25/16 A3017 RMK A01 T02490164  RH  059%=      5-min Rain = 0
KAI1 150258Z 11007KT 25/16 A3017 RMK A01 T02480164  RH  059%=      5-min Rain = 0
KAI1 150259Z 10007KT 25/16 A3017 RMK A01 T02470164  RH  060%=      5-min Rain = 0
KAI1 150300Z 10007KT 25/16 A3017 RMK A01 T02470164  RH  060%=      5-min Rain = 0
KAI1 150301Z 11007KT 25/17 A3017 RMK A01 T02460165  RH  060%=      5-min Rain = 0
KAI1 150302Z 10007KT 25/17 A3017 RMK A01 T02450165  RH  061%=      5-min Rain = 0
KAI1 150303Z 10007KT 25/17 A3017 RMK A01 T02450165  RH  061%=      5-min Rain = 0
KAI1 150304Z 10007KT 24/17 A3017 RMK A01 T02440165  RH  061%=      5-min Rain = 0
KAI1 150305Z 10007KT 24/17 A3017 RMK A01 T02440165  RH  062%=      5-min Rain = 0
KAI1 150306Z 10006KT 24/17 A3017 RMK A01 T02430165  RH  062%=      5-min Rain = 0
KAI1 150307Z 10006KT 24/17 A3017 RMK A01 T02430165  RH  062%=      5-min Rain = 0
KAI1 150308Z 10006KT 24/17 A3017 RMK A01 T02420165  RH  062%=      5-min Rain = 0
KAI1 150309Z 10006KT 24/17 A3017 RMK A01 T02420166  RH  062%=      5-min Rain = 0
KAI1 150310Z 10006KT 24/17 A3017 RMK A01 T02420165  RH  062%=      5-min Rain = 0
KAI1 150311Z 10007KT 24/17 A3017 RMK A01 T02420165  RH  062%=      5-min Rain = 0
KAI1 150312Z 10007KT 24/17 A3017 RMK A01 T02410165  RH  062%=      5-min Rain = 0
KAI1 150313Z 10007KT 24/16 A3017 RMK A01 T02410164  RH  062%=      5-min Rain = 0
KAI1 150314Z 10007KT 24/16 A3017 RMK A01 T02410164  RH  062%=      5-min Rain = 0
KAI1 150315Z 10008KT 24/16 A3017 RMK A01 T02420164  RH  062%=      5-min Rain = 0
KAI1 150316Z 11008KT 24/16 A3017 RMK A01 T02420163  RH  061%=      5-min Rain = 0
KAI1 150317Z 11008KT 24/16 A3017 RMK A01 T02430163  RH  061%=      5-min Rain = 0
KAI1 150318Z 11008KT 24/16 A3017 RMK A01 T02440162  RH  060%=      5-min Rain = 0
KAI1 150319Z 11008KT 25/16 A3017 RMK A01 T02450161  RH  060%=      5-min Rain = 0
KAI1 150320Z 11008KT 25/16 A3017 RMK A01 T02460161  RH  059%=      5-min Rain = 0
KAI1 150321Z 11007KT 25/16 A3017 RMK A01 T02470161  RH  059%=      5-min Rain = 0
KAI1 150322Z 11007KT 25/16 A3017 RMK A01 T02470161  RH  059%=      5-min Rain = 0
KAI1 150323Z 11007KT 25/16 A3017 RMK A01 T02470160  RH  058%=      5-min Rain = 0
KAI1 150324Z 11007KT 25/16 A3017 RMK A01 T02470160  RH  058%=      5-min Rain = 0
KAI1 150325Z 11007KT 25/16 A3017 RMK A01 T02470160  RH  058%=      5-min Rain = 0
KAI1 150326Z 11007KT 25/16 A3017 RMK A01 T02470160  RH  058%=      5-min Rain = 0
KAI1 150327Z 11007KT 25/16 A3018 RMK A01 T02470160  RH  058%=      5-min Rain = 0
KAI1 150328Z 11008KT 25/16 A3018 RMK A01 T02470160  RH  058%=      5-min Rain = 0
KAI1 150329Z 11007KT 25/16 A3018 RMK A01 T02470159  RH  058%=      5-min Rain = 0
KAI1 150330Z 11007KT 25/16 A3018 RMK A01 T02470159  RH  058%=      5-min Rain = 0
KAI1 150331Z 11007KT 25/16 A3018 RMK A01 T02470158  RH  058%=      5-min Rain = 0
KAI1 150332Z 11007KT 25/16 A3018 RMK A01 T02470158  RH  058%=      5-min Rain = 0
KAI1 150333Z 11006KT 25/16 A3018 RMK A01 T02470159  RH  058%=      5-min Rain = 0
KAI1 150334Z 11006KT 25/16 A3018 RMK A01 T02460159  RH  058%=      5-min Rain = 0
KAI1 150335Z 11006KT 25/16 A3018 RMK A01 T02450159  RH  058%=      5-min Rain = 0
KAI1 150336Z 11006KT 25/16 A3018 RMK A01 T02450159  RH  059%=      5-min Rain = 0
KAI1 150337Z 11006KT 24/16 A3018 RMK A01 T02440159  RH  059%=      5-min Rain = 0
KAI1 150338Z 11006KT 24/16 A3018 RMK A01 T02430159  RH  059%=      5-min Rain = 0
KAI1 150339Z 11006KT 24/16 A3018 RMK A01 T02420159  RH  060%=      5-min Rain = 0
KAI1 150340Z 11006KT 24/16 A3018 RMK A01 T02410159  RH  060%=      5-min Rain = 0
KAI1 150341Z 11006KT 24/16 A3018 RMK A01 T02410159  RH  060%=      5-min Rain = 0
KAI1 150342Z 11006KT 24/16 A3018 RMK A01 T02410159  RH  060%=      5-min Rain = 0
KAI1 150343Z 11006KT 24/16 A3018 RMK A01 T02400159  RH  061%=      5-min Rain = 0
KAI1 150344Z 11006KT 24/16 A3018 RMK A01 T02390160  RH  061%=      5-min Rain = 0
KAI1 150345Z 11007KT 24/16 A3018 RMK A01 T02390160  RH  061%=      5-min Rain = 0
KAI1 150346Z 11007KT 24/16 A3018 RMK A01 T02380160  RH  062%=      5-min Rain = 0
KAI1 150347Z 10007KT 24/16 A3018 RMK A01 T02370160  RH  062%=      5-min Rain = 0
KAI1 150348Z 10007KT 24/16 A3018 RMK A01 T02370160  RH  062%=      5-min Rain = 0
KAI1 150349Z 10008KT 24/16 A3018 RMK A01 T02360160  RH  062%=      5-min Rain = 0
KAI1 150350Z 10008KT 24/16 A3018 RMK A01 T02360160  RH  062%=      5-min Rain = 0
KAI1 150351Z 10007KT 24/16 A3019 RMK A01 T02360160  RH  062%=      5-min Rain = 0
KAI1 150352Z 10008KT 24/16 A3019 RMK A01 T02360159  RH  062%=      5-min Rain = 0
KAI1 150353Z 10008KT 24/16 A3019 RMK A01 T02370159  RH  061%=      5-min Rain = 0
KAI1 150354Z 10008KT 24/16 A3019 RMK A01 T02380158  RH  061%=      5-min Rain = 0
KAI1 150355Z 10008KT 24/16 A3019 RMK A01 T02390158  RH  060%=      5-min Rain = 0
KAI1 150356Z 10009KT 24/16 A3019 RMK A01 T02400158  RH  060%=      5-min Rain = 0
KAI1 150357Z 10008KT 24/16 A3019 RMK A01 T02400157  RH  060%=      5-min Rain = 0
KAI1 150358Z 10008KT 24/16 A3019 RMK A01 T02410157  RH  059%=      5-min Rain = 0
KAI1 150359Z 10009KT 24/16 A3019 RMK A01 T02420158  RH  059%=      5-min Rain = 0
KAI1 150400Z 10008KT 24/16 A3019 RMK A01 T02420157  RH  059%=      5-min Rain = 0
KAI1 150401Z 10008KT 24/16 A3019 RMK A01 T02430158  RH  059%=      5-min Rain = 0
KAI1 150402Z 10008KT 24/16 A3019 RMK A01 T02430157  RH  059%=      5-min Rain = 0
KAI1 150403Z 10008KT 24/16 A3019 RMK A01 T02440157  RH  058%=      5-min Rain = 0
KAI1 150404Z 10007KT 24/16 A3019 RMK A01 T02440157  RH  058%=      5-min Rain = 0
KAI1 150405Z 10008KT 24/16 A3019 RMK A01 T02440157  RH  058%=      5-min Rain = 0
KAI1 150406Z 10008KT 24/16 A3019 RMK A01 T02440157  RH  058%=      5-min Rain = 0
KAI1 150407Z 10007KT 24/16 A3019 RMK A01 T02440157  RH  058%=      5-min Rain = 0
KAI1 150408Z 10008KT 25/16 A3019 RMK A01 T02450158  RH  058%=      5-min Rain = 0
KAI1 150409Z 10009KT 25/16 A3019 RMK A01 T02460158  RH  058%=      5-min Rain = 0
KAI1 150410Z 10008KT 25/16 A3019 RMK A01 T02470158  RH  058%=      5-min Rain = 0
KAI1 150411Z 11008KT 25/16 A3019 RMK A01 T02470158  RH  058%=      5-min Rain = 0
KAI1 150412Z 11007KT 25/16 A3019 RMK A01 T02480158  RH  058%=      5-min Rain = 0
KAI1 150413Z 11009KT 25/16 A3019 RMK A01 T02480159  RH  058%=      5-min Rain = 0
KAI1 150414Z 11008KT 25/16 A3019 RMK A01 T02480159  RH  058%=      5-min Rain = 0
KAI1 150415Z 11008KT 25/16 A3019 RMK A01 T02480159  RH  058%=      5-min Rain = 0
KAI1 150416Z 11008KT 25/16 A3019 RMK A01 T02480159  RH  058%=      5-min Rain = 0
KAI1 150417Z 11008KT 25/16 A3019 RMK A01 T02470159  RH  058%=      5-min Rain = 0
KAI1 150418Z 11007KT 25/16 A3019 RMK A01 T02470159  RH  058%=      5-min Rain = 0
KAI1 150419Z 11007KT 25/16 A3019 RMK A01 T02470159  RH  058%=      5-min Rain = 0
KAI1 150420Z 11007KT 25/16 A3019 RMK A01 T02460159  RH  058%=      5-min Rain = 0
KAI1 150421Z 11007KT 25/16 A3019 RMK A01 T02460159  RH  059%=      5-min Rain = 0
KAI1 150422Z 11007KT 25/16 A3019 RMK A01 T02450160  RH  059%=      5-min Rain = 0
KAI1 150423Z 11006KT 24/16 A3019 RMK A01 T02440160  RH  059%=      5-min Rain = 0
KAI1 150424Z 11007KT 24/16 A3019 RMK A01 T02440160  RH  059%=      5-min Rain = 0
KAI1 150425Z 11006KT 24/16 A302 RMK A01 T02430160  RH  060%=      5-min Rain = 0
KAI1 150426Z 11006KT 24/16 A302 RMK A01 T02430160  RH  060%=      5-min Rain = 0
KAI1 150427Z 11007KT 24/16 A302 RMK A01 T02430160  RH  060%=      5-min Rain = 0
KAI1 150428Z 11006KT 24/16 A302 RMK A01 T02420160  RH  060%=      5-min Rain = 0
KAI1 150429Z 11006KT 24/16 A302 RMK A01 T02420160  RH  060%=      5-min Rain = 0
KAI1 150430Z 11006KT 24/16 A302 RMK A01 T02420161  RH  060%=      5-min Rain = 0
KAI1 150431Z 11006KT 24/16 A302 RMK A01 T02410161  RH  061%=      5-min Rain = 0
KAI1 150432Z 11007KT 24/16 A302 RMK A01 T02410161  RH  061%=      5-min Rain = 0
KAI1 150433Z 11006KT 24/16 A302 RMK A01 T02400161  RH  061%=      5-min Rain = 0
KAI1 150434Z 11006KT 24/16 A302 RMK A01 T02400161  RH  061%=      5-min Rain = 0
KAI1 150435Z 11007KT 24/16 A302 RMK A01 T02400161  RH  061%=      5-min Rain = 0
KAI1 150436Z 11007KT 24/16 A302 RMK A01 T02400161  RH  062%=      5-min Rain = 0
KAI1 150437Z 12007KT 24/16 A302 RMK A01 T02390161  RH  062%=      5-min Rain = 0
KAI1 150438Z 12007KT 24/16 A302 RMK A01 T02380161  RH  062%=      5-min Rain = 0
KAI1 150439Z 12007KT 24/16 A302 RMK A01 T02380161  RH  062%=      5-min Rain = 0
KAI1 150440Z 12006KT 24/16 A302 RMK A01 T02370161  RH  062%=      5-min Rain = 0
KAI1 150441Z 12006KT 24/16 A302 RMK A01 T02360161  RH  063%=      5-min Rain = 0
KAI1 150442Z 12006KT 24/16 A3019 RMK A01 T02360161  RH  063%=      5-min Rain = 0
KAI1 150443Z 12006KT 24/16 A3019 RMK A01 T02350160  RH  063%=      5-min Rain = 0
KAI1 150444Z 12006KT 23/16 A3019 RMK A01 T02340160  RH  063%=      5-min Rain = 0
KAI1 150445Z 12006KT 23/16 A3019 RMK A01 T02330160  RH  063%=      5-min Rain = 0
KAI1 150446Z 12006KT 23/16 A3019 RMK A01 T02330160  RH  063%=      5-min Rain = 0
KAI1 150447Z 11006KT 23/16 A3019 RMK A01 T02330160  RH  064%=      5-min Rain = 0
KAI1 150448Z 12006KT 23/16 A3019 RMK A01 T02320160  RH  064%=      5-min Rain = 0
KAI1 150449Z 11006KT 23/16 A3019 RMK A01 T02310160  RH  064%=      5-min Rain = 0
KAI1 150450Z 12006KT 23/16 A3019 RMK A01 T02300160  RH  064%=      5-min Rain = 0
KAI1 150451Z 12006KT 23/16 A3019 RMK A01 T02300160  RH  064%=      5-min Rain = 0
KAI1 150452Z 12006KT 23/16 A3019 RMK A01 T02300160  RH  065%=      5-min Rain = 0
KAI1 150453Z 12005KT 23/16 A3019 RMK A01 T02290160  RH  065%=      5-min Rain = 0
KAI1 150454Z 12005KT 23/16 A3019 RMK A01 T02290160  RH  065%=      5-min Rain = 0
KAI1 150455Z 12005KT 23/16 A3019 RMK A01 T02280160  RH  065%=      5-min Rain = 0
KAI1 150456Z 12005KT 23/16 A3019 RMK A01 T02270160  RH  066%=      5-min Rain = 0
KAI1 150457Z 12006KT 23/16 A3019 RMK A01 T02260160  RH  066%=      5-min Rain = 0
KAI1 150458Z 12006KT 23/16 A302 RMK A01 T02260160  RH  066%=      5-min Rain = 0
KAI1 150459Z 12006KT 23/16 A302 RMK A01 T02260160  RH  066%=      5-min Rain = 0

Page generated in 0.1213 seconds.